<?xml version='1.0' encoding='UTF-8'?><gpx version="1.1" creator="JPX - https://github.com/jenetics/jpx" xmlns="http://www.topografix.com/GPX/1/1"><trk><trkseg><trkpt lat="41.1984185" lon="1.0607551"><ele>355.7142857142857</ele><time>2026-04-05T10:18:51.372Z</time></trkpt><trkpt lat="41.198433" lon="1.060851"><ele>356.42857142857144</ele><time>2026-04-05T10:18:56.372Z</time></trkpt><trkpt lat="41.1984375" lon="1.06094"><ele>357.1428571428571</ele><time>2026-04-05T10:18:59.373Z</time></trkpt><trkpt lat="41.1984261" lon="1.0610332"><ele>357.8571428571429</ele><time>2026-04-05T10:19:03.372Z</time></trkpt><trkpt lat="41.1984287" lon="1.0611242"><ele>358.5714285714286</ele><time>2026-04-05T10:19:07.372Z</time></trkpt><trkpt lat="41.198435" lon="1.0612177"><ele>359.2857142857143</ele><time>2026-04-05T10:19:10.372Z</time></trkpt><trkpt lat="41.1984432" lon="1.0613228"><ele>360.0</ele><time>2026-04-05T10:19:14.372Z</time></trkpt><trkpt lat="41.1984644" lon="1.0614197"><ele>360.0</ele><time>2026-04-05T10:19:18.372Z</time></trkpt><trkpt lat="41.1984691" lon="1.0615129"><ele>360.0</ele><time>2026-04-05T10:19:22.372Z</time></trkpt><trkpt lat="41.1984682" lon="1.0616061"><ele>360.0</ele><time>2026-04-05T10:19:26.373Z</time></trkpt><trkpt lat="41.1984926" lon="1.0617029"><ele>360.0</ele><time>2026-04-05T10:19:31.372Z</time></trkpt><trkpt lat="41.1985278" lon="1.0617837"><ele>360.0</ele><time>2026-04-05T10:19:36.373Z</time></trkpt><trkpt lat="41.1985753" lon="1.0618782"><ele>360.0</ele><time>2026-04-05T10:19:40.372Z</time></trkpt><trkpt lat="41.198625" lon="1.0619602"><ele>360.2</ele><time>2026-04-05T10:19:44.372Z</time></trkpt><trkpt lat="41.1986675" lon="1.0620364"><ele>360.4</ele><time>2026-04-05T10:19:47.372Z</time></trkpt><trkpt lat="41.198708" lon="1.0621632"><ele>360.6</ele><time>2026-04-05T10:19:50.372Z</time></trkpt><trkpt lat="41.1987198" lon="1.0623352"><ele>360.8</ele><time>2026-04-05T10:19:52.372Z</time></trkpt><trkpt lat="41.1987414" lon="1.0624872"><ele>361.0</ele><time>2026-04-05T10:19:54.373Z</time></trkpt><trkpt lat="41.1987637" lon="1.0625812"><ele>360.0</ele><time>2026-04-05T10:19:56.372Z</time></trkpt><trkpt lat="41.1988311" lon="1.0632979"><ele>360.0</ele><time>2026-04-05T10:19:58.373Z</time></trkpt><trkpt lat="41.1987719" lon="1.0634259"><ele>360.0</ele><time>2026-04-05T10:20:00.372Z</time></trkpt><trkpt lat="41.1987237" lon="1.0635112"><ele>360.0</ele><time>2026-04-05T10:20:02.373Z</time></trkpt><trkpt lat="41.198699" lon="1.0636036"><ele>360.0</ele><time>2026-04-05T10:20:05.372Z</time></trkpt><trkpt lat="41.1986989" lon="1.0637139"><ele>360.0</ele><time>2026-04-05T10:20:09.373Z</time></trkpt><trkpt lat="41.1987178" lon="1.0638012"><ele>360.0</ele><time>2026-04-05T10:20:13.372Z</time></trkpt><trkpt lat="41.198712" lon="1.0638927"><ele>360.0</ele><time>2026-04-05T10:20:40.372Z</time></trkpt><trkpt lat="41.1986935" lon="1.064007"><ele>360.0</ele><time>2026-04-05T10:20:43.372Z</time></trkpt><trkpt lat="41.1986431" lon="1.0640753"><ele>360.0</ele><time>2026-04-05T10:20:45.372Z</time></trkpt><trkpt lat="41.1985836" lon="1.0641198"><ele>360.0</ele><time>2026-04-05T10:20:47.372Z</time></trkpt><trkpt lat="41.1985267" lon="1.0641837"><ele>360.0</ele><time>2026-04-05T10:20:50.372Z</time></trkpt><trkpt lat="41.1984459" lon="1.0642173"><ele>360.0</ele><time>2026-04-05T10:20:53.372Z</time></trkpt><trkpt lat="41.1983781" lon="1.0642653"><ele>360.0</ele><time>2026-04-05T10:20:56.373Z</time></trkpt><trkpt lat="41.1983166" lon="1.0642863"><ele>360.0</ele><time>2026-04-05T10:20:58.372Z</time></trkpt><trkpt lat="41.1982548" lon="1.0643241"><ele>360.0</ele><time>2026-04-05T10:21:00.372Z</time></trkpt><trkpt lat="41.198196" lon="1.0643711"><ele>360.0</ele><time>2026-04-05T10:21:02.373Z</time></trkpt><trkpt lat="41.1981117" lon="1.064397"><ele>360.0</ele><time>2026-04-05T10:21:05.372Z</time></trkpt><trkpt lat="41.1980651" lon="1.0644894"><ele>360.0</ele><time>2026-04-05T10:21:08.372Z</time></trkpt><trkpt lat="41.1980221" lon="1.0645785"><ele>357.0</ele><time>2026-04-05T10:21:11.373Z</time></trkpt><trkpt lat="41.1979908" lon="1.064652"><ele>354.0</ele><time>2026-04-05T10:21:14.372Z</time></trkpt><trkpt lat="41.1980098" lon="1.0647351"><ele>351.0</ele><time>2026-04-05T10:21:19.372Z</time></trkpt><trkpt lat="41.1979959" lon="1.0648395"><ele>348.0</ele><time>2026-04-05T10:21:22.372Z</time></trkpt><trkpt lat="41.1979514" lon="1.0649207"><ele>345.0</ele><time>2026-04-05T10:21:24.372Z</time></trkpt><trkpt lat="41.1978933" lon="1.0649926"><ele>342.0</ele><time>2026-04-05T10:21:27.372Z</time></trkpt><trkpt lat="41.1978353" lon="1.0650483"><ele>339.0</ele><time>2026-04-05T10:21:29.372Z</time></trkpt><trkpt lat="41.1977554" lon="1.0650439"><ele>338.6666666666667</ele><time>2026-04-05T10:21:31.372Z</time></trkpt><trkpt lat="41.1976848" lon="1.065002"><ele>338.3333333333333</ele><time>2026-04-05T10:21:33.372Z</time></trkpt><trkpt lat="41.1976149" lon="1.065041"><ele>338.0</ele><time>2026-04-05T10:21:37.372Z</time></trkpt><trkpt lat="41.1975714" lon="1.0651151"><ele>337.66666666666663</ele><time>2026-04-05T10:21:41.372Z</time></trkpt><trkpt lat="41.1974864" lon="1.0651219"><ele>337.3333333333333</ele><time>2026-04-05T10:21:44.372Z</time></trkpt><trkpt lat="41.1974208" lon="1.0651585"><ele>337.0</ele><time>2026-04-05T10:21:47.372Z</time></trkpt><trkpt lat="41.1973416" lon="1.0652264"><ele>335.66666666666663</ele><time>2026-04-05T10:21:50.373Z</time></trkpt><trkpt lat="41.1972557" lon="1.0652129"><ele>334.3333333333333</ele><time>2026-04-05T10:21:53.372Z</time></trkpt><trkpt lat="41.1971714" lon="1.0651266"><ele>333.0</ele><time>2026-04-05T10:21:55.372Z</time></trkpt><trkpt lat="41.1971225" lon="1.0650617"><ele>331.6666666666667</ele><time>2026-04-05T10:21:57.372Z</time></trkpt><trkpt lat="41.1970723" lon="1.0649954"><ele>330.33333333333337</ele><time>2026-04-05T10:22:00.372Z</time></trkpt><trkpt lat="41.1970163" lon="1.0649399"><ele>329.0</ele><time>2026-04-05T10:22:03.373Z</time></trkpt><trkpt lat="41.1969757" lon="1.0648587"><ele>328.83333333333337</ele><time>2026-04-05T10:22:06.372Z</time></trkpt><trkpt lat="41.1969136" lon="1.0648073"><ele>328.6666666666667</ele><time>2026-04-05T10:22:10.372Z</time></trkpt><trkpt lat="41.1968656" lon="1.0647436"><ele>328.5</ele><time>2026-04-05T10:22:14.372Z</time></trkpt><trkpt lat="41.1967903" lon="1.0647184"><ele>328.3333333333333</ele><time>2026-04-05T10:22:17.372Z</time></trkpt><trkpt lat="41.1967294" lon="1.064676"><ele>328.16666666666663</ele><time>2026-04-05T10:22:21.372Z</time></trkpt><trkpt lat="41.1967054" lon="1.0647669"><ele>328.0</ele><time>2026-04-05T10:22:26.372Z</time></trkpt><trkpt lat="41.1966005" lon="1.064813"><ele>328.0</ele><time>2026-04-05T10:22:29.372Z</time></trkpt><trkpt lat="41.1965137" lon="1.0648355"><ele>328.0</ele><time>2026-04-05T10:22:31.372Z</time></trkpt><trkpt lat="41.1964419" lon="1.0648442"><ele>328.0</ele><time>2026-04-05T10:22:33.373Z</time></trkpt><trkpt lat="41.1963736" lon="1.0648351"><ele>328.0</ele><time>2026-04-05T10:22:35.372Z</time></trkpt><trkpt lat="41.1962802" lon="1.0648321"><ele>328.0</ele><time>2026-04-05T10:22:38.372Z</time></trkpt><trkpt lat="41.1962112" lon="1.064841"><ele>328.0</ele><time>2026-04-05T10:22:41.372Z</time></trkpt><trkpt lat="41.1961757" lon="1.0649154"><ele>326.0</ele><time>2026-04-05T10:22:43.372Z</time></trkpt><trkpt lat="41.1961212" lon="1.0649689"><ele>324.0</ele><time>2026-04-05T10:22:45.372Z</time></trkpt><trkpt lat="41.1960505" lon="1.0649976"><ele>322.0</ele><time>2026-04-05T10:22:49.372Z</time></trkpt><trkpt lat="41.1959781" lon="1.064961"><ele>320.0</ele><time>2026-04-05T10:22:52.372Z</time></trkpt><trkpt lat="41.1959144" lon="1.0649957"><ele>318.0</ele><time>2026-04-05T10:22:56.372Z</time></trkpt><trkpt lat="41.19582" lon="1.0650137"><ele>316.0</ele><time>2026-04-05T10:22:59.373Z</time></trkpt><trkpt lat="41.195743" lon="1.065037"><ele>316.00000000000006</ele><time>2026-04-05T10:23:01.372Z</time></trkpt><trkpt lat="41.1956736" lon="1.0650412"><ele>316.0</ele><time>2026-04-05T10:23:03.372Z</time></trkpt><trkpt lat="41.1955633" lon="1.0650422"><ele>316.0</ele><time>2026-04-05T10:23:57.373Z</time></trkpt><trkpt lat="41.19563" lon="1.0650312"><ele>316.0</ele><time>2026-04-05T10:24:59.376Z</time></trkpt><trkpt lat="41.1956982" lon="1.0650132"><ele>316.0</ele><time>2026-04-05T10:25:10.372Z</time></trkpt><trkpt lat="41.1957533" lon="1.0650595"><ele>316.00000000000006</ele><time>2026-04-05T10:25:16.372Z</time></trkpt><trkpt lat="41.1957937" lon="1.0651285"><ele>316.0</ele><time>2026-04-05T10:25:28.373Z</time></trkpt><trkpt lat="41.1958259" lon="1.0652072"><ele>316.00000000000006</ele><time>2026-04-05T10:25:33.373Z</time></trkpt><trkpt lat="41.195882" lon="1.0652575"><ele>316.0</ele><time>2026-04-05T10:25:39.373Z</time></trkpt><trkpt lat="41.1959458" lon="1.065286"><ele>316.0</ele><time>2026-04-05T10:25:46.372Z</time></trkpt><trkpt lat="41.196008" lon="1.0653114"><ele>316.0</ele><time>2026-04-05T10:25:53.373Z</time></trkpt><trkpt lat="41.1960392" lon="1.0653893"><ele>316.0</ele><time>2026-04-05T10:25:59.372Z</time></trkpt><trkpt lat="41.1960827" lon="1.0654642"><ele>316.00000000000006</ele><time>2026-04-05T10:26:05.372Z</time></trkpt><trkpt lat="41.1961439" lon="1.0654969"><ele>316.0</ele><time>2026-04-05T10:26:12.372Z</time></trkpt><trkpt lat="41.1962138" lon="1.0655042"><ele>316.00000000000006</ele><time>2026-04-05T10:26:26.372Z</time></trkpt><trkpt lat="41.1962773" lon="1.0655398"><ele>316.0</ele><time>2026-04-05T10:26:36.372Z</time></trkpt><trkpt lat="41.196341" lon="1.0655682"><ele>316.0</ele><time>2026-04-05T10:26:44.372Z</time></trkpt><trkpt lat="41.1964049" lon="1.0656061"><ele>316.0</ele><time>2026-04-05T10:26:51.372Z</time></trkpt><trkpt lat="41.1964683" lon="1.0656254"><ele>316.0</ele><time>2026-04-05T10:26:58.372Z</time></trkpt><trkpt lat="41.196526" lon="1.0656907"><ele>316.00000000000006</ele><time>2026-04-05T10:27:12.299Z</time></trkpt><trkpt lat="41.1964588" lon="1.0657315"><ele>316.0</ele><time>2026-04-05T10:28:43.372Z</time></trkpt><trkpt lat="41.1963844" lon="1.0657091"><ele>316.0</ele><time>2026-04-05T10:28:48.372Z</time></trkpt><trkpt lat="41.1963161" lon="1.0656701"><ele>316.0</ele><time>2026-04-05T10:28:52.372Z</time></trkpt><trkpt lat="41.1962645" lon="1.065607"><ele>316.0</ele><time>2026-04-05T10:28:56.373Z</time></trkpt><trkpt lat="41.1962025" lon="1.0655573"><ele>316.0</ele><time>2026-04-05T10:29:00.372Z</time></trkpt><trkpt lat="41.196133" lon="1.065458"><ele>316.0</ele><time>2026-04-05T10:29:03.373Z</time></trkpt><trkpt lat="41.1960409" lon="1.0653796"><ele>316.0</ele><time>2026-04-05T10:29:05.372Z</time></trkpt><trkpt lat="41.1956855" lon="1.0651457"><ele>314.0</ele><time>2026-04-05T10:29:07.373Z</time></trkpt><trkpt lat="41.1955269" lon="1.0650398"><ele>312.0</ele><time>2026-04-05T10:29:13.372Z</time></trkpt><trkpt lat="41.1954648" lon="1.064997"><ele>310.0</ele><time>2026-04-05T10:29:15.373Z</time></trkpt><trkpt lat="41.1953867" lon="1.0650138"><ele>308.0</ele><time>2026-04-05T10:29:19.372Z</time></trkpt><trkpt lat="41.1952809" lon="1.0650218"><ele>306.0</ele><time>2026-04-05T10:29:22.372Z</time></trkpt><trkpt lat="41.1952032" lon="1.064999"><ele>306.0</ele><time>2026-04-05T10:29:23.372Z</time></trkpt><trkpt lat="41.1950817" lon="1.0649797"><ele>306.0</ele><time>2026-04-05T10:29:25.373Z</time></trkpt><trkpt lat="41.1949903" lon="1.0649672"><ele>306.0</ele><time>2026-04-05T10:29:27.372Z</time></trkpt><trkpt lat="41.1949155" lon="1.064958"><ele>306.0</ele><time>2026-04-05T10:29:29.372Z</time></trkpt><trkpt lat="41.1948131" lon="1.0649475"><ele>306.0</ele><time>2026-04-05T10:29:31.372Z</time></trkpt><trkpt lat="41.194722" lon="1.0649451"><ele>304.5</ele><time>2026-04-05T10:29:33.373Z</time></trkpt><trkpt lat="41.1946436" lon="1.0649291"><ele>303.0</ele><time>2026-04-05T10:29:35.372Z</time></trkpt><trkpt lat="41.1945495" lon="1.0649285"><ele>301.5</ele><time>2026-04-05T10:29:37.372Z</time></trkpt><trkpt lat="41.1944565" lon="1.0649043"><ele>300.0</ele><time>2026-04-05T10:29:39.372Z</time></trkpt><trkpt lat="41.1943822" lon="1.0648762"><ele>298.5</ele><time>2026-04-05T10:29:41.372Z</time></trkpt><trkpt lat="41.194295" lon="1.0648408"><ele>297.0</ele><time>2026-04-05T10:29:44.372Z</time></trkpt><trkpt lat="41.1942415" lon="1.0647962"><ele>297.0</ele><time>2026-04-05T10:29:47.372Z</time></trkpt><trkpt lat="41.1941775" lon="1.0647583"><ele>297.0</ele><time>2026-04-05T10:29:50.372Z</time></trkpt><trkpt lat="41.1941083" lon="1.0647164"><ele>297.0</ele><time>2026-04-05T10:29:54.372Z</time></trkpt><trkpt lat="41.1940467" lon="1.0647489"><ele>297.0</ele><time>2026-04-05T10:29:58.372Z</time></trkpt><trkpt lat="41.1940424" lon="1.0648464"><ele>297.0</ele><time>2026-04-05T10:30:01.372Z</time></trkpt><trkpt lat="41.1940407" lon="1.0649307"><ele>297.0</ele><time>2026-04-05T10:30:03.372Z</time></trkpt><trkpt lat="41.1940101" lon="1.065024"><ele>297.0</ele><time>2026-04-05T10:30:06.372Z</time></trkpt><trkpt lat="41.1939171" lon="1.0650303"><ele>295.6666666666667</ele><time>2026-04-05T10:30:32.373Z</time></trkpt><trkpt lat="41.1938599" lon="1.0649224"><ele>294.3333333333333</ele><time>2026-04-05T10:30:34.372Z</time></trkpt><trkpt lat="41.1938045" lon="1.0648552"><ele>293.0</ele><time>2026-04-05T10:30:36.372Z</time></trkpt><trkpt lat="41.1937314" lon="1.0648706"><ele>291.66666666666663</ele><time>2026-04-05T10:30:39.372Z</time></trkpt><trkpt lat="41.1936711" lon="1.0649262"><ele>290.3333333333333</ele><time>2026-04-05T10:30:41.372Z</time></trkpt><trkpt lat="41.1935959" lon="1.0649815"><ele>289.0</ele><time>2026-04-05T10:30:43.372Z</time></trkpt><trkpt lat="41.1934954" lon="1.065027"><ele>288.0</ele><time>2026-04-05T10:30:45.372Z</time></trkpt><trkpt lat="41.1934327" lon="1.0650514"><ele>287.0</ele><time>2026-04-05T10:30:46.373Z</time></trkpt><trkpt lat="41.1933291" lon="1.0650635"><ele>286.0</ele><time>2026-04-05T10:30:48.372Z</time></trkpt><trkpt lat="41.1932042" lon="1.0650337"><ele>285.0</ele><time>2026-04-05T10:30:50.372Z</time></trkpt><trkpt lat="41.1930851" lon="1.0650058"><ele>284.0</ele><time>2026-04-05T10:30:52.372Z</time></trkpt><trkpt lat="41.1929747" lon="1.0650013"><ele>282.2</ele><time>2026-04-05T10:30:54.372Z</time></trkpt><trkpt lat="41.1928786" lon="1.0650165"><ele>280.4</ele><time>2026-04-05T10:30:56.373Z</time></trkpt><trkpt lat="41.1928114" lon="1.0650211"><ele>278.6</ele><time>2026-04-05T10:30:57.372Z</time></trkpt><trkpt lat="41.1927053" lon="1.065057"><ele>276.8</ele><time>2026-04-05T10:30:59.372Z</time></trkpt><trkpt lat="41.1925942" lon="1.0651258"><ele>275.0</ele><time>2026-04-05T10:31:01.372Z</time></trkpt><trkpt lat="41.1924808" lon="1.0651963"><ele>275.0</ele><time>2026-04-05T10:31:03.373Z</time></trkpt><trkpt lat="41.1924197" lon="1.0652276"><ele>275.0</ele><time>2026-04-05T10:31:04.372Z</time></trkpt><trkpt lat="41.1923053" lon="1.0652746"><ele>275.0</ele><time>2026-04-05T10:31:06.372Z</time></trkpt><trkpt lat="41.1921972" lon="1.0653353"><ele>275.0</ele><time>2026-04-05T10:31:08.372Z</time></trkpt><trkpt lat="41.1920939" lon="1.0654213"><ele>275.0</ele><time>2026-04-05T10:31:10.372Z</time></trkpt><trkpt lat="41.1920246" lon="1.0654572"><ele>274.2857142857143</ele><time>2026-04-05T10:31:11.373Z</time></trkpt><trkpt lat="41.1919626" lon="1.065488"><ele>273.57142857142856</ele><time>2026-04-05T10:31:12.372Z</time></trkpt><trkpt lat="41.1918974" lon="1.0655257"><ele>272.85714285714283</ele><time>2026-04-05T10:31:13.372Z</time></trkpt><trkpt lat="41.1918357" lon="1.0655579"><ele>272.1428571428571</ele><time>2026-04-05T10:31:14.372Z</time></trkpt><trkpt lat="41.1917686" lon="1.0655795"><ele>271.4285714285714</ele><time>2026-04-05T10:31:15.372Z</time></trkpt><trkpt lat="41.1916999" lon="1.0655857"><ele>270.7142857142857</ele><time>2026-04-05T10:31:16.372Z</time></trkpt><trkpt lat="41.191628" lon="1.065589"><ele>270.0</ele><time>2026-04-05T10:31:17.373Z</time></trkpt><trkpt lat="41.1915596" lon="1.065585"><ele>269.42857142857144</ele><time>2026-04-05T10:31:18.372Z</time></trkpt><trkpt lat="41.1914865" lon="1.0655787"><ele>268.85714285714283</ele><time>2026-04-05T10:31:19.373Z</time></trkpt><trkpt lat="41.1914207" lon="1.0655796"><ele>268.2857142857143</ele><time>2026-04-05T10:31:20.372Z</time></trkpt><trkpt lat="41.1913465" lon="1.0655458"><ele>267.7142857142857</ele><time>2026-04-05T10:31:21.372Z</time></trkpt><trkpt lat="41.1912782" lon="1.0655147"><ele>267.1428571428571</ele><time>2026-04-05T10:31:22.372Z</time></trkpt><trkpt lat="41.1912137" lon="1.0654641"><ele>266.57142857142856</ele><time>2026-04-05T10:31:23.372Z</time></trkpt><trkpt lat="41.1911502" lon="1.0654177"><ele>266.0</ele><time>2026-04-05T10:31:24.372Z</time></trkpt><trkpt lat="41.1910843" lon="1.0653574"><ele>266.0</ele><time>2026-04-05T10:31:25.373Z</time></trkpt><trkpt lat="41.1910032" lon="1.0653158"><ele>266.0</ele><time>2026-04-05T10:31:26.372Z</time></trkpt><trkpt lat="41.1909523" lon="1.0652256"><ele>266.0</ele><time>2026-04-05T10:31:27.372Z</time></trkpt><trkpt lat="41.1908933" lon="1.0651792"><ele>266.0</ele><time>2026-04-05T10:31:28.372Z</time></trkpt><trkpt lat="41.1908225" lon="1.065138"><ele>266.0</ele><time>2026-04-05T10:31:29.372Z</time></trkpt><trkpt lat="41.1907537" lon="1.0650946"><ele>266.0</ele><time>2026-04-05T10:31:30.372Z</time></trkpt><trkpt lat="41.1906916" lon="1.0650528"><ele>265.33333333333337</ele><time>2026-04-05T10:31:31.372Z</time></trkpt><trkpt lat="41.1906274" lon="1.0650254"><ele>264.6666666666667</ele><time>2026-04-05T10:31:32.373Z</time></trkpt><trkpt lat="41.1905301" lon="1.0649232"><ele>264.0</ele><time>2026-04-05T10:31:34.372Z</time></trkpt><trkpt lat="41.190485" lon="1.0648515"><ele>263.3333333333333</ele><time>2026-04-05T10:31:35.373Z</time></trkpt><trkpt lat="41.1904451" lon="1.0647842"><ele>262.66666666666663</ele><time>2026-04-05T10:31:36.372Z</time></trkpt><trkpt lat="41.19036" lon="1.0646746"><ele>262.0</ele><time>2026-04-05T10:31:38.372Z</time></trkpt><trkpt lat="41.190305" lon="1.0646248"><ele>261.8571428571429</ele><time>2026-04-05T10:31:39.372Z</time></trkpt><trkpt lat="41.1902487" lon="1.0645865"><ele>261.7142857142857</ele><time>2026-04-05T10:31:40.372Z</time></trkpt><trkpt lat="41.1901776" lon="1.0645628"><ele>261.57142857142856</ele><time>2026-04-05T10:31:41.372Z</time></trkpt><trkpt lat="41.1901119" lon="1.0645145"><ele>261.42857142857144</ele><time>2026-04-05T10:31:42.373Z</time></trkpt><trkpt lat="41.1900425" lon="1.0644521"><ele>261.2857142857143</ele><time>2026-04-05T10:31:43.372Z</time></trkpt><trkpt lat="41.189984" lon="1.0643974"><ele>261.14285714285717</ele><time>2026-04-05T10:31:44.372Z</time></trkpt><trkpt lat="41.1899379" lon="1.0643304"><ele>261.0</ele><time>2026-04-05T10:31:45.372Z</time></trkpt><trkpt lat="41.189896" lon="1.0642541"><ele>261.0</ele><time>2026-04-05T10:31:46.372Z</time></trkpt><trkpt lat="41.1898471" lon="1.0641798"><ele>261.0</ele><time>2026-04-05T10:31:47.372Z</time></trkpt><trkpt lat="41.1897992" lon="1.0641173"><ele>261.0</ele><time>2026-04-05T10:31:48.372Z</time></trkpt><trkpt lat="41.1897427" lon="1.0640733"><ele>261.0</ele><time>2026-04-05T10:31:49.372Z</time></trkpt><trkpt lat="41.1896844" lon="1.0640204"><ele>261.0</ele><time>2026-04-05T10:31:50.372Z</time></trkpt><trkpt lat="41.1896254" lon="1.063951"><ele>261.0</ele><time>2026-04-05T10:31:51.372Z</time></trkpt><trkpt lat="41.1895709" lon="1.0638913"><ele>261.0</ele><time>2026-04-05T10:31:52.372Z</time></trkpt><trkpt lat="41.1895031" lon="1.0638543"><ele>259.8333333333333</ele><time>2026-04-05T10:31:53.372Z</time></trkpt><trkpt lat="41.1894358" lon="1.0637956"><ele>258.6666666666667</ele><time>2026-04-05T10:31:54.372Z</time></trkpt><trkpt lat="41.1893669" lon="1.0637324"><ele>257.5</ele><time>2026-04-05T10:31:55.373Z</time></trkpt><trkpt lat="41.1892977" lon="1.0636722"><ele>256.33333333333337</ele><time>2026-04-05T10:31:56.373Z</time></trkpt><trkpt lat="41.1892308" lon="1.0636251"><ele>255.16666666666669</ele><time>2026-04-05T10:31:57.372Z</time></trkpt><trkpt lat="41.1891688" lon="1.0635813"><ele>254.0</ele><time>2026-04-05T10:31:58.372Z</time></trkpt><trkpt lat="41.1891071" lon="1.0635267"><ele>254.0</ele><time>2026-04-05T10:31:59.372Z</time></trkpt><trkpt lat="41.1890539" lon="1.0634689"><ele>254.0</ele><time>2026-04-05T10:32:00.372Z</time></trkpt><trkpt lat="41.1890024" lon="1.0634081"><ele>254.0</ele><time>2026-04-05T10:32:01.372Z</time></trkpt><trkpt lat="41.1889546" lon="1.063339"><ele>254.0</ele><time>2026-04-05T10:32:02.373Z</time></trkpt><trkpt lat="41.1889138" lon="1.0632669"><ele>254.0</ele><time>2026-04-05T10:32:03.373Z</time></trkpt><trkpt lat="41.1888625" lon="1.0632033"><ele>254.0</ele><time>2026-04-05T10:32:04.373Z</time></trkpt><trkpt lat="41.1888178" lon="1.0631258"><ele>254.0</ele><time>2026-04-05T10:32:05.372Z</time></trkpt><trkpt lat="41.1887737" lon="1.0630528"><ele>254.50000000000003</ele><time>2026-04-05T10:32:06.373Z</time></trkpt><trkpt lat="41.1887286" lon="1.062979"><ele>255.0</ele><time>2026-04-05T10:32:07.372Z</time></trkpt><trkpt lat="41.1886825" lon="1.062894"><ele>255.5</ele><time>2026-04-05T10:32:08.372Z</time></trkpt><trkpt lat="41.1886339" lon="1.062824"><ele>256.0</ele><time>2026-04-05T10:32:09.372Z</time></trkpt><trkpt lat="41.1885907" lon="1.0627424"><ele>256.5</ele><time>2026-04-05T10:32:10.373Z</time></trkpt><trkpt lat="41.1885607" lon="1.0626481"><ele>257.0</ele><time>2026-04-05T10:32:11.372Z</time></trkpt><trkpt lat="41.1885252" lon="1.0625518"><ele>257.0</ele><time>2026-04-05T10:32:12.373Z</time></trkpt><trkpt lat="41.1884978" lon="1.062467"><ele>257.0</ele><time>2026-04-05T10:32:13.372Z</time></trkpt><trkpt lat="41.1884728" lon="1.0623866"><ele>257.0</ele><time>2026-04-05T10:32:14.372Z</time></trkpt><trkpt lat="41.1884462" lon="1.0622914"><ele>257.0</ele><time>2026-04-05T10:32:15.372Z</time></trkpt><trkpt lat="41.1884184" lon="1.0621888"><ele>257.0</ele><time>2026-04-05T10:32:16.372Z</time></trkpt><trkpt lat="41.1883883" lon="1.0621017"><ele>257.0</ele><time>2026-04-05T10:32:17.373Z</time></trkpt><trkpt lat="41.188346" lon="1.0620086"><ele>257.0</ele><time>2026-04-05T10:32:18.372Z</time></trkpt><trkpt lat="41.1883189" lon="1.0619132"><ele>255.83333333333334</ele><time>2026-04-05T10:32:19.372Z</time></trkpt><trkpt lat="41.1882839" lon="1.0618157"><ele>254.66666666666669</ele><time>2026-04-05T10:32:20.372Z</time></trkpt><trkpt lat="41.1882622" lon="1.0617192"><ele>253.5</ele><time>2026-04-05T10:32:21.372Z</time></trkpt><trkpt lat="41.1882127" lon="1.0616232"><ele>252.33333333333331</ele><time>2026-04-05T10:32:22.372Z</time></trkpt><trkpt lat="41.1881935" lon="1.0615291"><ele>251.16666666666666</ele><time>2026-04-05T10:32:23.372Z</time></trkpt><trkpt lat="41.1881695" lon="1.0614445"><ele>250.0</ele><time>2026-04-05T10:32:24.373Z</time></trkpt><trkpt lat="41.1881333" lon="1.0613537"><ele>249.33333333333331</ele><time>2026-04-05T10:32:25.372Z</time></trkpt><trkpt lat="41.1880927" lon="1.0612656"><ele>248.66666666666666</ele><time>2026-04-05T10:32:26.372Z</time></trkpt><trkpt lat="41.1880537" lon="1.0611743"><ele>248.0</ele><time>2026-04-05T10:32:27.372Z</time></trkpt><trkpt lat="41.1880141" lon="1.0610915"><ele>247.33333333333331</ele><time>2026-04-05T10:32:28.372Z</time></trkpt><trkpt lat="41.1879757" lon="1.0610012"><ele>246.66666666666666</ele><time>2026-04-05T10:32:29.372Z</time></trkpt><trkpt lat="41.1879355" lon="1.0609228"><ele>246.0</ele><time>2026-04-05T10:32:30.372Z</time></trkpt><trkpt lat="41.1878914" lon="1.0608455"><ele>245.16666666666666</ele><time>2026-04-05T10:32:31.372Z</time></trkpt><trkpt lat="41.1878503" lon="1.0607631"><ele>244.33333333333331</ele><time>2026-04-05T10:32:32.372Z</time></trkpt><trkpt lat="41.1878138" lon="1.0606944"><ele>243.5</ele><time>2026-04-05T10:32:33.372Z</time></trkpt><trkpt lat="41.1877358" lon="1.060581"><ele>242.66666666666666</ele><time>2026-04-05T10:32:35.373Z</time></trkpt><trkpt lat="41.1876695" lon="1.0604901"><ele>241.83333333333331</ele><time>2026-04-05T10:32:37.372Z</time></trkpt><trkpt lat="41.1876045" lon="1.0604109"><ele>241.0</ele><time>2026-04-05T10:32:39.372Z</time></trkpt><trkpt lat="41.1875388" lon="1.0603444"><ele>241.0</ele><time>2026-04-05T10:32:42.372Z</time></trkpt><trkpt lat="41.18748" lon="1.0603122"><ele>241.00000000000003</ele><time>2026-04-05T10:32:46.373Z</time></trkpt><trkpt lat="41.1874124" lon="1.060219"><ele>241.00000000000003</ele><time>2026-04-05T10:32:49.372Z</time></trkpt><trkpt lat="41.1873487" lon="1.0601355"><ele>241.0</ele><time>2026-04-05T10:32:51.372Z</time></trkpt><trkpt lat="41.1872702" lon="1.0600537"><ele>241.0</ele><time>2026-04-05T10:32:53.372Z</time></trkpt><trkpt lat="41.1871849" lon="1.0599675"><ele>241.49999999999997</ele><time>2026-04-05T10:32:55.372Z</time></trkpt><trkpt lat="41.1870857" lon="1.0598711"><ele>242.0</ele><time>2026-04-05T10:32:57.372Z</time></trkpt><trkpt lat="41.1870328" lon="1.0598182"><ele>242.5</ele><time>2026-04-05T10:32:58.372Z</time></trkpt><trkpt lat="41.1869807" lon="1.0597688"><ele>243.0</ele><time>2026-04-05T10:32:59.372Z</time></trkpt><trkpt lat="41.1869268" lon="1.0597182"><ele>243.49999999999997</ele><time>2026-04-05T10:33:00.372Z</time></trkpt><trkpt lat="41.186869" lon="1.059671"><ele>244.0</ele><time>2026-04-05T10:33:01.372Z</time></trkpt><trkpt lat="41.1867437" lon="1.0595812"><ele>243.99999999999997</ele><time>2026-04-05T10:33:03.372Z</time></trkpt><trkpt lat="41.1866811" lon="1.0595323"><ele>244.0</ele><time>2026-04-05T10:33:04.372Z</time></trkpt><trkpt lat="41.186617" lon="1.0594727"><ele>244.0</ele><time>2026-04-05T10:33:05.372Z</time></trkpt><trkpt lat="41.1865501" lon="1.0594097"><ele>244.0</ele><time>2026-04-05T10:33:06.373Z</time></trkpt><trkpt lat="41.1864842" lon="1.0593437"><ele>243.99999999999997</ele><time>2026-04-05T10:33:07.373Z</time></trkpt><trkpt lat="41.1864161" lon="1.0592795"><ele>244.0</ele><time>2026-04-05T10:33:08.372Z</time></trkpt><trkpt lat="41.1863512" lon="1.0592256"><ele>243.33333333333331</ele><time>2026-04-05T10:33:09.373Z</time></trkpt><trkpt lat="41.1862868" lon="1.0591668"><ele>242.66666666666666</ele><time>2026-04-05T10:33:10.372Z</time></trkpt><trkpt lat="41.1862177" lon="1.0591174"><ele>242.0</ele><time>2026-04-05T10:33:11.372Z</time></trkpt><trkpt lat="41.1861443" lon="1.0590643"><ele>241.33333333333331</ele><time>2026-04-05T10:33:12.372Z</time></trkpt><trkpt lat="41.1860734" lon="1.0590137"><ele>240.66666666666666</ele><time>2026-04-05T10:33:13.373Z</time></trkpt><trkpt lat="41.1860032" lon="1.0589638"><ele>240.0</ele><time>2026-04-05T10:33:14.372Z</time></trkpt><trkpt lat="41.185932" lon="1.0589211"><ele>240.0</ele><time>2026-04-05T10:33:15.372Z</time></trkpt><trkpt lat="41.1858622" lon="1.058876"><ele>240.0</ele><time>2026-04-05T10:33:16.372Z</time></trkpt><trkpt lat="41.1857887" lon="1.0588301"><ele>240.0</ele><time>2026-04-05T10:33:17.372Z</time></trkpt><trkpt lat="41.1857241" lon="1.0587956"><ele>240.0</ele><time>2026-04-05T10:33:18.372Z</time></trkpt><trkpt lat="41.1856536" lon="1.0587528"><ele>240.0</ele><time>2026-04-05T10:33:19.372Z</time></trkpt><trkpt lat="41.1855819" lon="1.0587092"><ele>240.0</ele><time>2026-04-05T10:33:20.372Z</time></trkpt><trkpt lat="41.1855121" lon="1.0586589"><ele>238.66666666666666</ele><time>2026-04-05T10:33:21.372Z</time></trkpt><trkpt lat="41.1854435" lon="1.0586095"><ele>237.33333333333331</ele><time>2026-04-05T10:33:22.372Z</time></trkpt><trkpt lat="41.1853692" lon="1.0585541"><ele>236.0</ele><time>2026-04-05T10:33:23.372Z</time></trkpt><trkpt lat="41.1852959" lon="1.0585212"><ele>234.66666666666666</ele><time>2026-04-05T10:33:24.372Z</time></trkpt><trkpt lat="41.1852224" lon="1.0584875"><ele>233.33333333333331</ele><time>2026-04-05T10:33:25.372Z</time></trkpt><trkpt lat="41.1851509" lon="1.0584346"><ele>232.0</ele><time>2026-04-05T10:33:26.373Z</time></trkpt><trkpt lat="41.1850824" lon="1.0584084"><ele>232.00000000000003</ele><time>2026-04-05T10:33:27.373Z</time></trkpt><trkpt lat="41.1850108" lon="1.0583984"><ele>232.0</ele><time>2026-04-05T10:33:28.372Z</time></trkpt><trkpt lat="41.1849398" lon="1.0583764"><ele>232.00000000000003</ele><time>2026-04-05T10:33:29.372Z</time></trkpt><trkpt lat="41.1848683" lon="1.0583621"><ele>232.00000000000003</ele><time>2026-04-05T10:33:30.372Z</time></trkpt><trkpt lat="41.1847981" lon="1.0583579"><ele>232.0</ele><time>2026-04-05T10:33:31.372Z</time></trkpt><trkpt lat="41.1847246" lon="1.0583598"><ele>232.00000000000003</ele><time>2026-04-05T10:33:32.372Z</time></trkpt><trkpt lat="41.1846447" lon="1.0583236"><ele>232.00000000000003</ele><time>2026-04-05T10:33:33.372Z</time></trkpt><trkpt lat="41.1845787" lon="1.0582833"><ele>231.28571428571433</ele><time>2026-04-05T10:33:34.372Z</time></trkpt><trkpt lat="41.1845196" lon="1.0582387"><ele>230.57142857142858</ele><time>2026-04-05T10:33:35.372Z</time></trkpt><trkpt lat="41.1844608" lon="1.0581914"><ele>229.8571428571429</ele><time>2026-04-05T10:33:36.372Z</time></trkpt><trkpt lat="41.1844067" lon="1.0581311"><ele>229.14285714285717</ele><time>2026-04-05T10:33:37.372Z</time></trkpt><trkpt lat="41.1843536" lon="1.0580753"><ele>228.42857142857144</ele><time>2026-04-05T10:33:38.373Z</time></trkpt><trkpt lat="41.1842935" lon="1.0580282"><ele>227.71428571428572</ele><time>2026-04-05T10:33:39.372Z</time></trkpt><trkpt lat="41.1842297" lon="1.0579796"><ele>227.0</ele><time>2026-04-05T10:33:40.372Z</time></trkpt><trkpt lat="41.1841646" lon="1.0579297"><ele>227.00000000000003</ele><time>2026-04-05T10:33:41.372Z</time></trkpt><trkpt lat="41.1841029" lon="1.0578597"><ele>227.0</ele><time>2026-04-05T10:33:42.372Z</time></trkpt><trkpt lat="41.1840396" lon="1.0578074"><ele>227.0</ele><time>2026-04-05T10:33:43.372Z</time></trkpt><trkpt lat="41.183974" lon="1.0577436"><ele>227.0</ele><time>2026-04-05T10:33:44.372Z</time></trkpt><trkpt lat="41.1839101" lon="1.0576801"><ele>227.00000000000003</ele><time>2026-04-05T10:33:45.372Z</time></trkpt><trkpt lat="41.183849" lon="1.0576172"><ele>227.0</ele><time>2026-04-05T10:33:46.372Z</time></trkpt><trkpt lat="41.1837901" lon="1.0575555"><ele>226.33333333333334</ele><time>2026-04-05T10:33:47.372Z</time></trkpt><trkpt lat="41.1837189" lon="1.0574853"><ele>225.66666666666669</ele><time>2026-04-05T10:33:48.372Z</time></trkpt><trkpt lat="41.1836532" lon="1.0574183"><ele>225.0</ele><time>2026-04-05T10:33:49.372Z</time></trkpt><trkpt lat="41.1835889" lon="1.0573549"><ele>224.33333333333331</ele><time>2026-04-05T10:33:50.372Z</time></trkpt><trkpt lat="41.1835287" lon="1.0572814"><ele>223.66666666666666</ele><time>2026-04-05T10:33:51.372Z</time></trkpt><trkpt lat="41.1834677" lon="1.057206"><ele>223.0</ele><time>2026-04-05T10:33:52.373Z</time></trkpt><trkpt lat="41.1834056" lon="1.0571263"><ele>222.83333333333331</ele><time>2026-04-05T10:33:53.372Z</time></trkpt><trkpt lat="41.1833395" lon="1.0570582"><ele>222.66666666666666</ele><time>2026-04-05T10:33:54.372Z</time></trkpt><trkpt lat="41.1832719" lon="1.0569887"><ele>222.5</ele><time>2026-04-05T10:33:55.373Z</time></trkpt><trkpt lat="41.1832038" lon="1.0569231"><ele>222.33333333333331</ele><time>2026-04-05T10:33:56.373Z</time></trkpt><trkpt lat="41.1831327" lon="1.0568576"><ele>222.16666666666666</ele><time>2026-04-05T10:33:57.372Z</time></trkpt><trkpt lat="41.1830609" lon="1.0567853"><ele>222.0</ele><time>2026-04-05T10:33:58.372Z</time></trkpt><trkpt lat="41.1829966" lon="1.0567187"><ele>221.66666666666666</ele><time>2026-04-05T10:33:59.373Z</time></trkpt><trkpt lat="41.1829271" lon="1.0566531"><ele>221.33333333333331</ele><time>2026-04-05T10:34:00.372Z</time></trkpt><trkpt lat="41.182855" lon="1.0565848"><ele>221.0</ele><time>2026-04-05T10:34:01.372Z</time></trkpt><trkpt lat="41.182792" lon="1.0565176"><ele>220.66666666666666</ele><time>2026-04-05T10:34:02.372Z</time></trkpt><trkpt lat="41.1827281" lon="1.0564516"><ele>220.33333333333331</ele><time>2026-04-05T10:34:03.372Z</time></trkpt><trkpt lat="41.182662" lon="1.056385"><ele>220.0</ele><time>2026-04-05T10:34:04.372Z</time></trkpt><trkpt lat="41.1825976" lon="1.0563179"><ele>219.99999999999997</ele><time>2026-04-05T10:34:05.372Z</time></trkpt><trkpt lat="41.1825372" lon="1.0562555"><ele>220.0</ele><time>2026-04-05T10:34:06.372Z</time></trkpt><trkpt lat="41.182472" lon="1.0561953"><ele>220.0</ele><time>2026-04-05T10:34:07.373Z</time></trkpt><trkpt lat="41.1824124" lon="1.0561184"><ele>220.0</ele><time>2026-04-05T10:34:08.372Z</time></trkpt><trkpt lat="41.1823563" lon="1.0560488"><ele>219.99999999999997</ele><time>2026-04-05T10:34:09.372Z</time></trkpt><trkpt lat="41.1823037" lon="1.0559776"><ele>220.0</ele><time>2026-04-05T10:34:10.372Z</time></trkpt><trkpt lat="41.1822531" lon="1.0559037"><ele>219.99999999999997</ele><time>2026-04-05T10:34:11.373Z</time></trkpt><trkpt lat="41.182201" lon="1.0558243"><ele>220.0</ele><time>2026-04-05T10:34:12.372Z</time></trkpt><trkpt lat="41.1821517" lon="1.0557472"><ele>220.0</ele><time>2026-04-05T10:34:13.372Z</time></trkpt><trkpt lat="41.1821031" lon="1.0556669"><ele>220.0</ele><time>2026-04-05T10:34:14.372Z</time></trkpt><trkpt lat="41.182058" lon="1.0555831"><ele>219.99999999999997</ele><time>2026-04-05T10:34:15.372Z</time></trkpt><trkpt lat="41.1820171" lon="1.0555151"><ele>220.0</ele><time>2026-04-05T10:34:16.373Z</time></trkpt><trkpt lat="41.1819886" lon="1.0554224"><ele>219.66666666666666</ele><time>2026-04-05T10:34:17.373Z</time></trkpt><trkpt lat="41.1819658" lon="1.0553261"><ele>219.33333333333331</ele><time>2026-04-05T10:34:18.372Z</time></trkpt><trkpt lat="41.1819465" lon="1.0551928"><ele>219.0</ele><time>2026-04-05T10:34:19.372Z</time></trkpt><trkpt lat="41.1819311" lon="1.055096"><ele>218.66666666666669</ele><time>2026-04-05T10:34:20.372Z</time></trkpt><trkpt lat="41.18192" lon="1.054998"><ele>218.33333333333334</ele><time>2026-04-05T10:34:21.372Z</time></trkpt><trkpt lat="41.1819164" lon="1.0548976"><ele>218.0</ele><time>2026-04-05T10:34:22.372Z</time></trkpt><trkpt lat="41.1819165" lon="1.0548019"><ele>217.85714285714286</ele><time>2026-04-05T10:34:23.372Z</time></trkpt><trkpt lat="41.1819231" lon="1.0547073"><ele>217.71428571428572</ele><time>2026-04-05T10:34:24.372Z</time></trkpt><trkpt lat="41.1819368" lon="1.0546124"><ele>217.57142857142856</ele><time>2026-04-05T10:34:25.372Z</time></trkpt><trkpt lat="41.1819567" lon="1.0545167"><ele>217.42857142857144</ele><time>2026-04-05T10:34:26.372Z</time></trkpt><trkpt lat="41.181971" lon="1.0544196"><ele>217.28571428571428</ele><time>2026-04-05T10:34:27.372Z</time></trkpt><trkpt lat="41.1819938" lon="1.0543289"><ele>217.14285714285714</ele><time>2026-04-05T10:34:28.372Z</time></trkpt><trkpt lat="41.1820213" lon="1.0542413"><ele>217.0</ele><time>2026-04-05T10:34:29.372Z</time></trkpt><trkpt lat="41.1820519" lon="1.0541344"><ele>216.0</ele><time>2026-04-05T10:34:30.372Z</time></trkpt><trkpt lat="41.1820737" lon="1.0540516"><ele>215.0</ele><time>2026-04-05T10:34:31.372Z</time></trkpt><trkpt lat="41.1820925" lon="1.053903"><ele>214.0</ele><time>2026-04-05T10:34:33.372Z</time></trkpt><trkpt lat="41.1821052" lon="1.0537653"><ele>213.0</ele><time>2026-04-05T10:34:35.372Z</time></trkpt><trkpt lat="41.1821185" lon="1.0535989"><ele>212.0</ele><time>2026-04-05T10:34:37.373Z</time></trkpt><trkpt lat="41.1821462" lon="1.0534591"><ele>212.0</ele><time>2026-04-05T10:34:39.372Z</time></trkpt><trkpt lat="41.1821486" lon="1.0533692"><ele>212.0</ele><time>2026-04-05T10:34:42.372Z</time></trkpt><trkpt lat="41.1820922" lon="1.0533292"><ele>212.0</ele><time>2026-04-05T10:35:04.372Z</time></trkpt><trkpt lat="41.1820153" lon="1.0533356"><ele>212.0</ele><time>2026-04-05T10:35:08.372Z</time></trkpt><trkpt lat="41.1819427" lon="1.05333"><ele>212.0</ele><time>2026-04-05T10:35:12.373Z</time></trkpt><trkpt lat="41.1818728" lon="1.0533432"><ele>212.0</ele><time>2026-04-05T10:35:16.372Z</time></trkpt><trkpt lat="41.1817968" lon="1.0533666"><ele>212.0</ele><time>2026-04-05T10:35:21.372Z</time></trkpt><trkpt lat="41.1817328" lon="1.0533764"><ele>212.0</ele><time>2026-04-05T10:35:25.372Z</time></trkpt><trkpt lat="41.181666" lon="1.0533679"><ele>212.0</ele><time>2026-04-05T10:35:29.372Z</time></trkpt><trkpt lat="41.1815945" lon="1.0533688"><ele>212.0</ele><time>2026-04-05T10:35:33.372Z</time></trkpt><trkpt lat="41.1815314" lon="1.0533732"><ele>212.0</ele><time>2026-04-05T10:35:36.372Z</time></trkpt><trkpt lat="41.1814466" lon="1.0533765"><ele>212.0</ele><time>2026-04-05T10:35:40.372Z</time></trkpt><trkpt lat="41.1813718" lon="1.0534112"><ele>212.0</ele><time>2026-04-05T10:35:44.372Z</time></trkpt><trkpt lat="41.18131" lon="1.0534724"><ele>212.0</ele><time>2026-04-05T10:35:48.372Z</time></trkpt><trkpt lat="41.181256" lon="1.0535255"><ele>211.85714285714286</ele><time>2026-04-05T10:35:52.372Z</time></trkpt><trkpt lat="41.1812028" lon="1.0535778"><ele>211.7142857142857</ele><time>2026-04-05T10:35:56.373Z</time></trkpt><trkpt lat="41.181152" lon="1.0536578"><ele>211.57142857142856</ele><time>2026-04-05T10:36:01.372Z</time></trkpt><trkpt lat="41.181115" lon="1.0537605"><ele>211.42857142857144</ele><time>2026-04-05T10:36:05.372Z</time></trkpt><trkpt lat="41.1810881" lon="1.0538427"><ele>211.28571428571428</ele><time>2026-04-05T10:36:08.373Z</time></trkpt><trkpt lat="41.1810671" lon="1.0539254"><ele>211.14285714285714</ele><time>2026-04-05T10:36:11.372Z</time></trkpt><trkpt lat="41.181051" lon="1.0540067"><ele>211.0</ele><time>2026-04-05T10:36:14.372Z</time></trkpt><trkpt lat="41.1810266" lon="1.0541154"><ele>211.83333333333331</ele><time>2026-04-05T10:36:18.372Z</time></trkpt><trkpt lat="41.1810275" lon="1.0542127"><ele>212.66666666666666</ele><time>2026-04-05T10:36:21.372Z</time></trkpt><trkpt lat="41.1810419" lon="1.0543105"><ele>213.5</ele><time>2026-04-05T10:36:24.372Z</time></trkpt><trkpt lat="41.1810577" lon="1.0544102"><ele>214.33333333333331</ele><time>2026-04-05T10:36:27.372Z</time></trkpt><trkpt lat="41.1810851" lon="1.054497"><ele>215.16666666666666</ele><time>2026-04-05T10:36:30.373Z</time></trkpt><trkpt lat="41.1810969" lon="1.0545997"><ele>216.0</ele><time>2026-04-05T10:36:33.372Z</time></trkpt><trkpt lat="41.1810971" lon="1.0547174"><ele>216.0</ele><time>2026-04-05T10:36:36.373Z</time></trkpt><trkpt lat="41.1810919" lon="1.054833"><ele>216.0</ele><time>2026-04-05T10:36:39.372Z</time></trkpt><trkpt lat="41.1810918" lon="1.0549588"><ele>216.0</ele><time>2026-04-05T10:36:42.372Z</time></trkpt><trkpt lat="41.1810907" lon="1.0550456"><ele>216.0</ele><time>2026-04-05T10:36:44.372Z</time></trkpt><trkpt lat="41.1810959" lon="1.0551698"><ele>216.0</ele><time>2026-04-05T10:36:47.372Z</time></trkpt><trkpt lat="41.1810963" lon="1.0552814"><ele>216.0</ele><time>2026-04-05T10:36:50.372Z</time></trkpt><trkpt lat="41.181092" lon="1.0553965"><ele>216.14285714285714</ele><time>2026-04-05T10:36:53.372Z</time></trkpt><trkpt lat="41.1810922" lon="1.0555068"><ele>216.28571428571428</ele><time>2026-04-05T10:36:56.372Z</time></trkpt><trkpt lat="41.181096" lon="1.055609"><ele>216.42857142857144</ele><time>2026-04-05T10:36:59.372Z</time></trkpt><trkpt lat="41.1810906" lon="1.0556966"><ele>216.57142857142856</ele><time>2026-04-05T10:37:02.372Z</time></trkpt><trkpt lat="41.1810949" lon="1.0557848"><ele>216.71428571428572</ele><time>2026-04-05T10:37:05.372Z</time></trkpt><trkpt lat="41.1810822" lon="1.0558756"><ele>216.85714285714286</ele><time>2026-04-05T10:37:08.372Z</time></trkpt><trkpt lat="41.1810671" lon="1.055963"><ele>217.0</ele><time>2026-04-05T10:37:11.372Z</time></trkpt><trkpt lat="41.1810502" lon="1.056049"><ele>217.49999999999997</ele><time>2026-04-05T10:37:14.372Z</time></trkpt><trkpt lat="41.1810165" lon="1.0561269"><ele>218.0</ele><time>2026-04-05T10:37:17.372Z</time></trkpt><trkpt lat="41.1809529" lon="1.0562125"><ele>218.5</ele><time>2026-04-05T10:37:20.372Z</time></trkpt><trkpt lat="41.180887" lon="1.0562732"><ele>219.0</ele><time>2026-04-05T10:37:22.373Z</time></trkpt><trkpt lat="41.1808312" lon="1.0563121"><ele>219.49999999999997</ele><time>2026-04-05T10:37:24.372Z</time></trkpt><trkpt lat="41.1807625" lon="1.0563519"><ele>220.0</ele><time>2026-04-05T10:37:27.372Z</time></trkpt><trkpt lat="41.180685" lon="1.0563979"><ele>220.14285714285714</ele><time>2026-04-05T10:37:30.372Z</time></trkpt><trkpt lat="41.180614" lon="1.0564479"><ele>220.28571428571428</ele><time>2026-04-05T10:37:33.373Z</time></trkpt><trkpt lat="41.1805473" lon="1.0564939"><ele>220.42857142857144</ele><time>2026-04-05T10:37:36.372Z</time></trkpt><trkpt lat="41.1804869" lon="1.0565437"><ele>220.57142857142856</ele><time>2026-04-05T10:37:39.372Z</time></trkpt><trkpt lat="41.180418" lon="1.0565814"><ele>220.71428571428572</ele><time>2026-04-05T10:37:42.372Z</time></trkpt><trkpt lat="41.1803452" lon="1.0566338"><ele>220.85714285714286</ele><time>2026-04-05T10:37:46.372Z</time></trkpt><trkpt lat="41.1802899" lon="1.0566763"><ele>221.0</ele><time>2026-04-05T10:37:49.372Z</time></trkpt><trkpt lat="41.1802371" lon="1.0567386"><ele>221.8571428571429</ele><time>2026-04-05T10:37:53.372Z</time></trkpt><trkpt lat="41.1801745" lon="1.0567801"><ele>222.71428571428572</ele><time>2026-04-05T10:37:57.372Z</time></trkpt><trkpt lat="41.1801225" lon="1.0568288"><ele>223.57142857142858</ele><time>2026-04-05T10:38:01.372Z</time></trkpt><trkpt lat="41.1800666" lon="1.056889"><ele>224.42857142857144</ele><time>2026-04-05T10:38:06.372Z</time></trkpt><trkpt lat="41.1800052" lon="1.0569433"><ele>225.2857142857143</ele><time>2026-04-05T10:38:11.372Z</time></trkpt><trkpt lat="41.1799501" lon="1.0569976"><ele>226.14285714285717</ele><time>2026-04-05T10:38:15.372Z</time></trkpt><trkpt lat="41.1799025" lon="1.0570534"><ele>227.0</ele><time>2026-04-05T10:38:19.372Z</time></trkpt><trkpt lat="41.1798502" lon="1.0571279"><ele>227.14285714285717</ele><time>2026-04-05T10:38:24.373Z</time></trkpt><trkpt lat="41.1798291" lon="1.0572179"><ele>227.2857142857143</ele><time>2026-04-05T10:38:29.373Z</time></trkpt><trkpt lat="41.1798084" lon="1.0573037"><ele>227.42857142857144</ele><time>2026-04-05T10:38:34.372Z</time></trkpt><trkpt lat="41.1797825" lon="1.0573983"><ele>227.57142857142856</ele><time>2026-04-05T10:38:39.372Z</time></trkpt><trkpt lat="41.1797449" lon="1.0574872"><ele>227.7142857142857</ele><time>2026-04-05T10:38:44.372Z</time></trkpt><trkpt lat="41.1797012" lon="1.0575725"><ele>227.85714285714283</ele><time>2026-04-05T10:38:49.372Z</time></trkpt><trkpt lat="41.1796616" lon="1.0576594"><ele>228.0</ele><time>2026-04-05T10:38:54.372Z</time></trkpt><trkpt lat="41.1796173" lon="1.0577301"><ele>228.7142857142857</ele><time>2026-04-05T10:38:58.372Z</time></trkpt><trkpt lat="41.1795767" lon="1.0578134"><ele>229.4285714285714</ele><time>2026-04-05T10:39:02.372Z</time></trkpt><trkpt lat="41.1795359" lon="1.0578824"><ele>230.14285714285714</ele><time>2026-04-05T10:39:06.372Z</time></trkpt><trkpt lat="41.1794923" lon="1.0579569"><ele>230.85714285714283</ele><time>2026-04-05T10:39:10.372Z</time></trkpt><trkpt lat="41.1794522" lon="1.0580273"><ele>231.57142857142856</ele><time>2026-04-05T10:39:14.372Z</time></trkpt><trkpt lat="41.1794115" lon="1.0580962"><ele>232.28571428571428</ele><time>2026-04-05T10:39:18.372Z</time></trkpt><trkpt lat="41.1793658" lon="1.0581582"><ele>233.0</ele><time>2026-04-05T10:39:22.373Z</time></trkpt><trkpt lat="41.1793206" lon="1.0582171"><ele>233.28571428571428</ele><time>2026-04-05T10:39:26.372Z</time></trkpt><trkpt lat="41.1792814" lon="1.0582955"><ele>233.57142857142856</ele><time>2026-04-05T10:39:31.372Z</time></trkpt><trkpt lat="41.1792475" lon="1.0583663"><ele>233.85714285714283</ele><time>2026-04-05T10:39:36.372Z</time></trkpt><trkpt lat="41.1792041" lon="1.0584285"><ele>234.14285714285714</ele><time>2026-04-05T10:39:41.373Z</time></trkpt><trkpt lat="41.1791608" lon="1.0585001"><ele>234.4285714285714</ele><time>2026-04-05T10:39:46.372Z</time></trkpt><trkpt lat="41.1791129" lon="1.0585726"><ele>234.7142857142857</ele><time>2026-04-05T10:39:51.372Z</time></trkpt><trkpt lat="41.1790636" lon="1.0586396"><ele>235.0</ele><time>2026-04-05T10:39:56.372Z</time></trkpt><trkpt lat="41.1790171" lon="1.0587133"><ele>235.0</ele><time>2026-04-05T10:40:01.372Z</time></trkpt><trkpt lat="41.1789586" lon="1.05877"><ele>234.99999999999997</ele><time>2026-04-05T10:40:05.372Z</time></trkpt><trkpt lat="41.1789054" lon="1.0588434"><ele>235.0</ele><time>2026-04-05T10:40:10.372Z</time></trkpt><trkpt lat="41.1788602" lon="1.0589041"><ele>235.0</ele><time>2026-04-05T10:40:14.372Z</time></trkpt><trkpt lat="41.1788115" lon="1.0589763"><ele>234.99999999999997</ele><time>2026-04-05T10:40:18.372Z</time></trkpt><trkpt lat="41.1787624" lon="1.0590522"><ele>235.0</ele><time>2026-04-05T10:40:22.372Z</time></trkpt><trkpt lat="41.1786931" lon="1.0590908"><ele>235.0</ele><time>2026-04-05T10:40:25.372Z</time></trkpt><trkpt lat="41.1786139" lon="1.0591242"><ele>235.0</ele><time>2026-04-05T10:40:28.372Z</time></trkpt><trkpt lat="41.1785218" lon="1.0591506"><ele>235.0</ele><time>2026-04-05T10:40:31.372Z</time></trkpt><trkpt lat="41.178106" lon="1.0593822"><ele>235.0</ele><time>2026-04-05T10:40:34.372Z</time></trkpt><trkpt lat="41.1780372" lon="1.0594139"><ele>234.99999999999997</ele><time>2026-04-05T10:40:35.372Z</time></trkpt><trkpt lat="41.1779716" lon="1.0594571"><ele>235.0</ele><time>2026-04-05T10:40:36.372Z</time></trkpt><trkpt lat="41.1779135" lon="1.0595011"><ele>235.0</ele><time>2026-04-05T10:40:37.373Z</time></trkpt><trkpt lat="41.1778677" lon="1.0595606"><ele>234.99999999999997</ele><time>2026-04-05T10:40:38.372Z</time></trkpt><trkpt lat="41.1778251" lon="1.0596341"><ele>235.0</ele><time>2026-04-05T10:40:39.373Z</time></trkpt><trkpt lat="41.1777848" lon="1.05972"><ele>235.0</ele><time>2026-04-05T10:40:40.372Z</time></trkpt><trkpt lat="41.1777459" lon="1.0598084"><ele>234.99999999999997</ele><time>2026-04-05T10:40:41.373Z</time></trkpt><trkpt lat="41.1776999" lon="1.0599027"><ele>235.0</ele><time>2026-04-05T10:40:42.372Z</time></trkpt><trkpt lat="41.177658" lon="1.0600074"><ele>235.0</ele><time>2026-04-05T10:40:43.372Z</time></trkpt><trkpt lat="41.1776162" lon="1.0601081"><ele>235.0</ele><time>2026-04-05T10:40:44.372Z</time></trkpt><trkpt lat="41.1775691" lon="1.0601971"><ele>234.99999999999997</ele><time>2026-04-05T10:40:45.372Z</time></trkpt><trkpt lat="41.1775288" lon="1.0602825"><ele>235.0</ele><time>2026-04-05T10:40:46.372Z</time></trkpt><trkpt lat="41.1774749" lon="1.0603747"><ele>234.33333333333331</ele><time>2026-04-05T10:40:47.372Z</time></trkpt><trkpt lat="41.1774285" lon="1.0604708"><ele>233.66666666666666</ele><time>2026-04-05T10:40:48.372Z</time></trkpt><trkpt lat="41.1773827" lon="1.060567"><ele>233.0</ele><time>2026-04-05T10:40:49.372Z</time></trkpt><trkpt lat="41.1773468" lon="1.0606609"><ele>232.33333333333331</ele><time>2026-04-05T10:40:50.372Z</time></trkpt><trkpt lat="41.1773162" lon="1.0607516"><ele>231.66666666666666</ele><time>2026-04-05T10:40:51.372Z</time></trkpt><trkpt lat="41.1772929" lon="1.0608449"><ele>231.0</ele><time>2026-04-05T10:40:52.372Z</time></trkpt><trkpt lat="41.1772795" lon="1.0609467"><ele>228.83333333333334</ele><time>2026-04-05T10:40:53.372Z</time></trkpt><trkpt lat="41.1772747" lon="1.0610495"><ele>226.66666666666669</ele><time>2026-04-05T10:40:54.372Z</time></trkpt><trkpt lat="41.1772725" lon="1.0611582"><ele>224.5</ele><time>2026-04-05T10:40:55.372Z</time></trkpt><trkpt lat="41.1772642" lon="1.0612693"><ele>222.33333333333334</ele><time>2026-04-05T10:40:56.372Z</time></trkpt><trkpt lat="41.1772674" lon="1.0613811"><ele>220.16666666666669</ele><time>2026-04-05T10:40:57.372Z</time></trkpt><trkpt lat="41.1772812" lon="1.0614941"><ele>218.0</ele><time>2026-04-05T10:40:58.372Z</time></trkpt><trkpt lat="41.1772981" lon="1.061602"><ele>217.66666666666669</ele><time>2026-04-05T10:40:59.373Z</time></trkpt><trkpt lat="41.1773212" lon="1.0617105"><ele>217.33333333333334</ele><time>2026-04-05T10:41:00.372Z</time></trkpt><trkpt lat="41.177328" lon="1.0618176"><ele>217.0</ele><time>2026-04-05T10:41:01.373Z</time></trkpt><trkpt lat="41.1773263" lon="1.0619196"><ele>216.66666666666669</ele><time>2026-04-05T10:41:02.373Z</time></trkpt><trkpt lat="41.1773067" lon="1.0620152"><ele>216.33333333333334</ele><time>2026-04-05T10:41:03.373Z</time></trkpt><trkpt lat="41.1772735" lon="1.0620992"><ele>216.0</ele><time>2026-04-05T10:41:04.372Z</time></trkpt><trkpt lat="41.1772295" lon="1.0621643"><ele>216.0</ele><time>2026-04-05T10:41:05.372Z</time></trkpt><trkpt lat="41.1771822" lon="1.0622201"><ele>216.0</ele><time>2026-04-05T10:41:06.372Z</time></trkpt><trkpt lat="41.1770987" lon="1.0623212"><ele>216.0</ele><time>2026-04-05T10:41:08.372Z</time></trkpt><trkpt lat="41.1770245" lon="1.0623894"><ele>216.0</ele><time>2026-04-05T10:41:10.373Z</time></trkpt><trkpt lat="41.176952" lon="1.062435"><ele>216.0</ele><time>2026-04-05T10:41:12.372Z</time></trkpt><trkpt lat="41.1768877" lon="1.0624432"><ele>216.0</ele><time>2026-04-05T10:41:14.372Z</time></trkpt><trkpt lat="41.1768218" lon="1.062481"><ele>216.5</ele><time>2026-04-05T10:41:16.373Z</time></trkpt><trkpt lat="41.1767698" lon="1.0625308"><ele>217.0</ele><time>2026-04-05T10:41:18.372Z</time></trkpt><trkpt lat="41.1767145" lon="1.0625951"><ele>217.5</ele><time>2026-04-05T10:41:20.372Z</time></trkpt><trkpt lat="41.1766577" lon="1.0626677"><ele>218.0</ele><time>2026-04-05T10:41:22.372Z</time></trkpt><trkpt lat="41.1766003" lon="1.0627467"><ele>218.5</ele><time>2026-04-05T10:41:24.372Z</time></trkpt><trkpt lat="41.1765289" lon="1.0628343"><ele>219.0</ele><time>2026-04-05T10:41:26.372Z</time></trkpt><trkpt lat="41.1764541" lon="1.0629323"><ele>217.75</ele><time>2026-04-05T10:41:28.372Z</time></trkpt><trkpt lat="41.1763807" lon="1.0630441"><ele>216.5</ele><time>2026-04-05T10:41:30.372Z</time></trkpt><trkpt lat="41.1763539" lon="1.0631945"><ele>215.25</ele><time>2026-04-05T10:41:32.372Z</time></trkpt><trkpt lat="41.1763521" lon="1.0633513"><ele>214.0</ele><time>2026-04-05T10:41:34.372Z</time></trkpt><trkpt lat="41.1763494" lon="1.0635066"><ele>214.0</ele><time>2026-04-05T10:41:36.372Z</time></trkpt><trkpt lat="41.176341" lon="1.0636633"><ele>214.0</ele><time>2026-04-05T10:41:38.372Z</time></trkpt><trkpt lat="41.1763312" lon="1.0637954"><ele>214.0</ele><time>2026-04-05T10:41:40.372Z</time></trkpt><trkpt lat="41.1763383" lon="1.0639506"><ele>214.0</ele><time>2026-04-05T10:41:42.372Z</time></trkpt><trkpt lat="41.1763452" lon="1.0641216"><ele>214.66666666666666</ele><time>2026-04-05T10:41:44.372Z</time></trkpt><trkpt lat="41.1763274" lon="1.064202"><ele>215.33333333333331</ele><time>2026-04-05T10:41:45.373Z</time></trkpt><trkpt lat="41.1763168" lon="1.0642887"><ele>216.0</ele><time>2026-04-05T10:41:46.372Z</time></trkpt><trkpt lat="41.1762431" lon="1.0644188"><ele>216.66666666666669</ele><time>2026-04-05T10:41:48.372Z</time></trkpt><trkpt lat="41.1761779" lon="1.0644671"><ele>217.33333333333334</ele><time>2026-04-05T10:41:49.373Z</time></trkpt><trkpt lat="41.1760878" lon="1.0645556"><ele>218.0</ele><time>2026-04-05T10:41:51.372Z</time></trkpt><trkpt lat="41.1760036" lon="1.0645874"><ele>218.0</ele><time>2026-04-05T10:41:53.372Z</time></trkpt><trkpt lat="41.1759365" lon="1.0645299"><ele>218.0</ele><time>2026-04-05T10:41:55.372Z</time></trkpt><trkpt lat="41.1758634" lon="1.0644336"><ele>218.0</ele><time>2026-04-05T10:41:57.373Z</time></trkpt><trkpt lat="41.1757728" lon="1.0643093"><ele>218.0</ele><time>2026-04-05T10:41:59.372Z</time></trkpt><trkpt lat="41.175722" lon="1.0642369"><ele>218.0</ele><time>2026-04-05T10:42:00.372Z</time></trkpt><trkpt lat="41.1756445" lon="1.0640808"><ele>216.50000000000003</ele><time>2026-04-05T10:42:02.373Z</time></trkpt><trkpt lat="41.1755979" lon="1.0640164"><ele>215.0</ele><time>2026-04-05T10:42:03.373Z</time></trkpt><trkpt lat="41.1755562" lon="1.0639395"><ele>213.5</ele><time>2026-04-05T10:42:04.372Z</time></trkpt><trkpt lat="41.1755021" lon="1.0638858"><ele>212.0</ele><time>2026-04-05T10:42:05.372Z</time></trkpt><trkpt lat="41.1754484" lon="1.0638331"><ele>210.50000000000003</ele><time>2026-04-05T10:42:06.372Z</time></trkpt><trkpt lat="41.1753971" lon="1.06378"><ele>209.0</ele><time>2026-04-05T10:42:07.372Z</time></trkpt><trkpt lat="41.1752831" lon="1.0637168"><ele>209.0</ele><time>2026-04-05T10:42:09.372Z</time></trkpt><trkpt lat="41.1751812" lon="1.0636751"><ele>209.0</ele><time>2026-04-05T10:42:11.373Z</time></trkpt><trkpt lat="41.1750815" lon="1.0637005"><ele>209.0</ele><time>2026-04-05T10:42:13.372Z</time></trkpt><trkpt lat="41.1749997" lon="1.0637692"><ele>209.0</ele><time>2026-04-05T10:42:15.372Z</time></trkpt><trkpt lat="41.174942" lon="1.0638385"><ele>209.0</ele><time>2026-04-05T10:42:17.373Z</time></trkpt><trkpt lat="41.1748838" lon="1.0639113"><ele>209.00000000000003</ele><time>2026-04-05T10:42:19.372Z</time></trkpt><trkpt lat="41.1748461" lon="1.0639887"><ele>209.0</ele><time>2026-04-05T10:42:21.372Z</time></trkpt><trkpt lat="41.1748118" lon="1.0640602"><ele>209.0</ele><time>2026-04-05T10:42:23.373Z</time></trkpt><trkpt lat="41.1747751" lon="1.0641712"><ele>209.0</ele><time>2026-04-05T10:42:26.372Z</time></trkpt><trkpt lat="41.1747567" lon="1.0642712"><ele>209.00000000000003</ele><time>2026-04-05T10:42:29.373Z</time></trkpt><trkpt lat="41.1747349" lon="1.0643551"><ele>209.0</ele><time>2026-04-05T10:42:31.372Z</time></trkpt><trkpt lat="41.1747" lon="1.0644631"><ele>209.39999999999998</ele><time>2026-04-05T10:42:33.372Z</time></trkpt><trkpt lat="41.1746691" lon="1.0645935"><ele>209.8</ele><time>2026-04-05T10:42:35.372Z</time></trkpt><trkpt lat="41.1746226" lon="1.0647186"><ele>210.2</ele><time>2026-04-05T10:42:37.372Z</time></trkpt><trkpt lat="41.1745446" lon="1.0648169"><ele>210.60000000000002</ele><time>2026-04-05T10:42:39.372Z</time></trkpt><trkpt lat="41.174471" lon="1.0649205"><ele>211.0</ele><time>2026-04-05T10:42:41.372Z</time></trkpt><trkpt lat="41.1743878" lon="1.0650148"><ele>210.66666666666666</ele><time>2026-04-05T10:42:43.372Z</time></trkpt><trkpt lat="41.1743113" lon="1.0651007"><ele>210.33333333333331</ele><time>2026-04-05T10:42:45.372Z</time></trkpt><trkpt lat="41.1742416" lon="1.065191"><ele>210.0</ele><time>2026-04-05T10:42:47.372Z</time></trkpt><trkpt lat="41.1741796" lon="1.0652781"><ele>209.66666666666669</ele><time>2026-04-05T10:42:49.372Z</time></trkpt><trkpt lat="41.1741383" lon="1.0653587"><ele>209.33333333333334</ele><time>2026-04-05T10:42:51.372Z</time></trkpt><trkpt lat="41.1740797" lon="1.0654349"><ele>209.0</ele><time>2026-04-05T10:42:53.373Z</time></trkpt><trkpt lat="41.1740093" lon="1.0655135"><ele>209.0</ele><time>2026-04-05T10:42:55.372Z</time></trkpt><trkpt lat="41.1739349" lon="1.0655916"><ele>209.0</ele><time>2026-04-05T10:42:57.372Z</time></trkpt><trkpt lat="41.1738641" lon="1.0656849"><ele>209.0</ele><time>2026-04-05T10:42:59.372Z</time></trkpt><trkpt lat="41.1737932" lon="1.0657753"><ele>209.0</ele><time>2026-04-05T10:43:01.372Z</time></trkpt><trkpt lat="41.1737287" lon="1.0658707"><ele>209.0</ele><time>2026-04-05T10:43:03.372Z</time></trkpt><trkpt lat="41.173657" lon="1.0659588"><ele>209.83333333333334</ele><time>2026-04-05T10:43:05.372Z</time></trkpt><trkpt lat="41.1735903" lon="1.0660366"><ele>210.66666666666669</ele><time>2026-04-05T10:43:07.373Z</time></trkpt><trkpt lat="41.1735235" lon="1.0660906"><ele>211.5</ele><time>2026-04-05T10:43:09.372Z</time></trkpt><trkpt lat="41.173477" lon="1.0661631"><ele>212.33333333333331</ele><time>2026-04-05T10:43:11.372Z</time></trkpt><trkpt lat="41.173477" lon="1.0662626"><ele>213.16666666666666</ele><time>2026-04-05T10:43:13.372Z</time></trkpt><trkpt lat="41.1735283" lon="1.0663339"><ele>214.0</ele><time>2026-04-05T10:43:15.372Z</time></trkpt><trkpt lat="41.1736054" lon="1.0663953"><ele>213.99999999999997</ele><time>2026-04-05T10:43:18.372Z</time></trkpt><trkpt lat="41.173663" lon="1.0664656"><ele>214.0</ele><time>2026-04-05T10:43:21.372Z</time></trkpt><trkpt lat="41.1737148" lon="1.0665334"><ele>214.0</ele><time>2026-04-05T10:43:25.372Z</time></trkpt><trkpt lat="41.173766" lon="1.0666077"><ele>214.0</ele><time>2026-04-05T10:43:44.372Z</time></trkpt><trkpt lat="41.1737495" lon="1.0667147"><ele>213.99999999999997</ele><time>2026-04-05T10:43:49.372Z</time></trkpt><trkpt lat="41.1736853" lon="1.0667777"><ele>214.0</ele><time>2026-04-05T10:43:52.372Z</time></trkpt><trkpt lat="41.1736063" lon="1.0668331"><ele>214.5</ele><time>2026-04-05T10:43:55.372Z</time></trkpt><trkpt lat="41.173553" lon="1.0669131"><ele>215.0</ele><time>2026-04-05T10:43:58.373Z</time></trkpt><trkpt lat="41.1731907" lon="1.0671968"><ele>214.16666666666669</ele><time>2026-04-05T10:43:59.372Z</time></trkpt><trkpt lat="41.1731304" lon="1.0672553"><ele>213.33333333333334</ele><time>2026-04-05T10:44:00.373Z</time></trkpt><trkpt lat="41.1730724" lon="1.0673359"><ele>212.5</ele><time>2026-04-05T10:44:01.373Z</time></trkpt><trkpt lat="41.1730165" lon="1.0674207"><ele>211.66666666666669</ele><time>2026-04-05T10:44:02.372Z</time></trkpt><trkpt lat="41.1729649" lon="1.0675055"><ele>210.83333333333334</ele><time>2026-04-05T10:44:03.372Z</time></trkpt><trkpt lat="41.1729159" lon="1.0675972"><ele>210.0</ele><time>2026-04-05T10:44:04.372Z</time></trkpt><trkpt lat="41.1728671" lon="1.0676824"><ele>208.85714285714286</ele><time>2026-04-05T10:44:05.373Z</time></trkpt><trkpt lat="41.1728119" lon="1.0677533"><ele>207.71428571428572</ele><time>2026-04-05T10:44:06.372Z</time></trkpt><trkpt lat="41.1727618" lon="1.0678201"><ele>206.57142857142856</ele><time>2026-04-05T10:44:07.372Z</time></trkpt><trkpt lat="41.1727082" lon="1.0678861"><ele>205.42857142857144</ele><time>2026-04-05T10:44:08.372Z</time></trkpt><trkpt lat="41.1726585" lon="1.067964"><ele>204.28571428571428</ele><time>2026-04-05T10:44:09.372Z</time></trkpt><trkpt lat="41.1726142" lon="1.0680384"><ele>203.14285714285714</ele><time>2026-04-05T10:44:10.372Z</time></trkpt><trkpt lat="41.1725778" lon="1.0681153"><ele>202.0</ele><time>2026-04-05T10:44:11.372Z</time></trkpt><trkpt lat="41.1725445" lon="1.0681906"><ele>200.8</ele><time>2026-04-05T10:44:12.372Z</time></trkpt><trkpt lat="41.17252" lon="1.0682811"><ele>199.6</ele><time>2026-04-05T10:44:13.372Z</time></trkpt><trkpt lat="41.1724774" lon="1.0684215"><ele>198.4</ele><time>2026-04-05T10:44:15.372Z</time></trkpt><trkpt lat="41.1724734" lon="1.0685739"><ele>197.20000000000002</ele><time>2026-04-05T10:44:17.372Z</time></trkpt><trkpt lat="41.1724601" lon="1.0686711"><ele>196.0</ele><time>2026-04-05T10:44:18.372Z</time></trkpt><trkpt lat="41.1724443" lon="1.0687918"><ele>196.0</ele><time>2026-04-05T10:44:20.372Z</time></trkpt><trkpt lat="41.1724233" lon="1.0689176"><ele>196.0</ele><time>2026-04-05T10:44:22.372Z</time></trkpt><trkpt lat="41.1723474" lon="1.0690061"><ele>196.0</ele><time>2026-04-05T10:44:24.372Z</time></trkpt><trkpt lat="41.1722844" lon="1.0690368"><ele>196.0</ele><time>2026-04-05T10:44:25.372Z</time></trkpt><trkpt lat="41.1722037" lon="1.0690883"><ele>196.0</ele><time>2026-04-05T10:44:27.373Z</time></trkpt><trkpt lat="41.1721112" lon="1.0691575"><ele>194.83333333333331</ele><time>2026-04-05T10:44:29.373Z</time></trkpt><trkpt lat="41.172032" lon="1.0692225"><ele>193.66666666666666</ele><time>2026-04-05T10:44:31.372Z</time></trkpt><trkpt lat="41.1719938" lon="1.0693103"><ele>192.5</ele><time>2026-04-05T10:44:33.372Z</time></trkpt><trkpt lat="41.1720204" lon="1.0694166"><ele>191.33333333333331</ele><time>2026-04-05T10:44:36.372Z</time></trkpt><trkpt lat="41.1720412" lon="1.0694982"><ele>190.16666666666666</ele><time>2026-04-05T10:44:38.372Z</time></trkpt><trkpt lat="41.1720606" lon="1.0695924"><ele>189.0</ele><time>2026-04-05T10:44:40.372Z</time></trkpt><trkpt lat="41.1720807" lon="1.06968"><ele>189.0</ele><time>2026-04-05T10:44:42.372Z</time></trkpt><trkpt lat="41.1721003" lon="1.069773"><ele>189.0</ele><time>2026-04-05T10:44:44.373Z</time></trkpt><trkpt lat="41.1721194" lon="1.069856"><ele>189.0</ele><time>2026-04-05T10:44:46.372Z</time></trkpt><trkpt lat="41.1721528" lon="1.0699683"><ele>189.0</ele><time>2026-04-05T10:44:49.372Z</time></trkpt><trkpt lat="41.1721805" lon="1.0700617"><ele>189.0</ele><time>2026-04-05T10:44:51.372Z</time></trkpt><trkpt lat="41.1722067" lon="1.0701583"><ele>189.0</ele><time>2026-04-05T10:44:53.372Z</time></trkpt><trkpt lat="41.1722311" lon="1.0702498"><ele>188.66666666666666</ele><time>2026-04-05T10:44:55.372Z</time></trkpt><trkpt lat="41.1722566" lon="1.0703377"><ele>188.33333333333334</ele><time>2026-04-05T10:44:57.372Z</time></trkpt><trkpt lat="41.1722854" lon="1.0704171"><ele>188.0</ele><time>2026-04-05T10:44:59.372Z</time></trkpt><trkpt lat="41.1723258" lon="1.0705142"><ele>187.66666666666669</ele><time>2026-04-05T10:45:02.372Z</time></trkpt><trkpt lat="41.1723702" lon="1.0706209"><ele>187.33333333333334</ele><time>2026-04-05T10:45:05.372Z</time></trkpt><trkpt lat="41.1723984" lon="1.0707095"><ele>187.0</ele><time>2026-04-05T10:45:07.373Z</time></trkpt><trkpt lat="41.1724041" lon="1.0707978"><ele>187.0</ele><time>2026-04-05T10:45:09.373Z</time></trkpt><trkpt lat="41.1723533" lon="1.070892"><ele>187.0</ele><time>2026-04-05T10:45:11.372Z</time></trkpt><trkpt lat="41.172281" lon="1.0709293"><ele>187.0</ele><time>2026-04-05T10:45:13.372Z</time></trkpt><trkpt lat="41.1722092" lon="1.0709345"><ele>187.0</ele><time>2026-04-05T10:45:15.372Z</time></trkpt><trkpt lat="41.1721338" lon="1.0709653"><ele>187.0</ele><time>2026-04-05T10:45:17.372Z</time></trkpt><trkpt lat="41.1720519" lon="1.0709931"><ele>187.0</ele><time>2026-04-05T10:45:18.372Z</time></trkpt><trkpt lat="41.1718295" lon="1.0710378"><ele>187.0</ele><time>2026-04-05T10:45:19.372Z</time></trkpt><trkpt lat="41.1717597" lon="1.0710507"><ele>187.0</ele><time>2026-04-05T10:45:20.372Z</time></trkpt><trkpt lat="41.1716904" lon="1.0710696"><ele>187.0</ele><time>2026-04-05T10:45:21.373Z</time></trkpt><trkpt lat="41.1716172" lon="1.0710838"><ele>187.0</ele><time>2026-04-05T10:45:22.372Z</time></trkpt><trkpt lat="41.1715472" lon="1.071097"><ele>187.0</ele><time>2026-04-05T10:45:23.372Z</time></trkpt><trkpt lat="41.1714804" lon="1.0711197"><ele>187.0</ele><time>2026-04-05T10:45:24.373Z</time></trkpt><trkpt lat="41.1714109" lon="1.0711391"><ele>187.0</ele><time>2026-04-05T10:45:25.372Z</time></trkpt><trkpt lat="41.1713405" lon="1.071156"><ele>186.28571428571428</ele><time>2026-04-05T10:45:26.373Z</time></trkpt><trkpt lat="41.171277" lon="1.0711735"><ele>185.57142857142858</ele><time>2026-04-05T10:45:27.373Z</time></trkpt><trkpt lat="41.1712043" lon="1.0711922"><ele>184.85714285714286</ele><time>2026-04-05T10:45:28.372Z</time></trkpt><trkpt lat="41.1711323" lon="1.0712083"><ele>184.14285714285714</ele><time>2026-04-05T10:45:29.372Z</time></trkpt><trkpt lat="41.1710582" lon="1.0712271"><ele>183.42857142857144</ele><time>2026-04-05T10:45:30.372Z</time></trkpt><trkpt lat="41.170986" lon="1.0712429"><ele>182.71428571428572</ele><time>2026-04-05T10:45:31.372Z</time></trkpt><trkpt lat="41.1709138" lon="1.0712595"><ele>182.0</ele><time>2026-04-05T10:45:32.372Z</time></trkpt><trkpt lat="41.1708381" lon="1.0712745"><ele>182.0</ele><time>2026-04-05T10:45:33.372Z</time></trkpt><trkpt lat="41.1707613" lon="1.0712837"><ele>182.0</ele><time>2026-04-05T10:45:34.372Z</time></trkpt><trkpt lat="41.1706844" lon="1.0712917"><ele>182.0</ele><time>2026-04-05T10:45:35.372Z</time></trkpt><trkpt lat="41.1706072" lon="1.0713033"><ele>182.0</ele><time>2026-04-05T10:45:36.372Z</time></trkpt><trkpt lat="41.170534" lon="1.0713211"><ele>182.0</ele><time>2026-04-05T10:45:37.372Z</time></trkpt><trkpt lat="41.1704609" lon="1.0713315"><ele>182.0</ele><time>2026-04-05T10:45:38.372Z</time></trkpt><trkpt lat="41.1703883" lon="1.0713428"><ele>181.71428571428572</ele><time>2026-04-05T10:45:39.372Z</time></trkpt><trkpt lat="41.170322" lon="1.0713634"><ele>181.42857142857144</ele><time>2026-04-05T10:45:40.372Z</time></trkpt><trkpt lat="41.170256" lon="1.0713774"><ele>181.14285714285714</ele><time>2026-04-05T10:45:41.372Z</time></trkpt><trkpt lat="41.1701894" lon="1.0713917"><ele>180.85714285714286</ele><time>2026-04-05T10:45:42.372Z</time></trkpt><trkpt lat="41.1701252" lon="1.0713961"><ele>180.57142857142858</ele><time>2026-04-05T10:45:43.372Z</time></trkpt><trkpt lat="41.1700641" lon="1.0714249"><ele>180.28571428571428</ele><time>2026-04-05T10:45:44.372Z</time></trkpt><trkpt lat="41.1699651" lon="1.0714764"><ele>180.0</ele><time>2026-04-05T10:45:46.372Z</time></trkpt><trkpt lat="41.1699679" lon="1.0716047"><ele>179.66666666666666</ele><time>2026-04-05T10:45:49.372Z</time></trkpt><trkpt lat="41.1700076" lon="1.0717211"><ele>179.33333333333334</ele><time>2026-04-05T10:45:51.372Z</time></trkpt><trkpt lat="41.170001" lon="1.0718435"><ele>179.0</ele><time>2026-04-05T10:45:53.372Z</time></trkpt><trkpt lat="41.1699653" lon="1.0719349"><ele>178.66666666666669</ele><time>2026-04-05T10:45:55.372Z</time></trkpt><trkpt lat="41.1698963" lon="1.0719564"><ele>178.33333333333334</ele><time>2026-04-05T10:45:56.372Z</time></trkpt><trkpt lat="41.1698065" lon="1.0720242"><ele>178.0</ele><time>2026-04-05T10:45:58.372Z</time></trkpt><trkpt lat="41.1697214" lon="1.0720948"><ele>177.8</ele><time>2026-04-05T10:46:00.372Z</time></trkpt><trkpt lat="41.169629" lon="1.0721732"><ele>177.60000000000002</ele><time>2026-04-05T10:46:02.372Z</time></trkpt><trkpt lat="41.169544" lon="1.0722002"><ele>177.39999999999998</ele><time>2026-04-05T10:46:04.372Z</time></trkpt><trkpt lat="41.1694619" lon="1.0722249"><ele>177.2</ele><time>2026-04-05T10:46:06.372Z</time></trkpt><trkpt lat="41.1693774" lon="1.0722695"><ele>177.0</ele><time>2026-04-05T10:46:08.372Z</time></trkpt><trkpt lat="41.1692892" lon="1.0723144"><ele>177.0</ele><time>2026-04-05T10:46:10.372Z</time></trkpt><trkpt lat="41.1692047" lon="1.0723534"><ele>177.0</ele><time>2026-04-05T10:46:12.372Z</time></trkpt><trkpt lat="41.169113" lon="1.072396"><ele>177.0</ele><time>2026-04-05T10:46:14.373Z</time></trkpt><trkpt lat="41.1690304" lon="1.0724383"><ele>177.0</ele><time>2026-04-05T10:46:16.373Z</time></trkpt><trkpt lat="41.1689482" lon="1.0724829"><ele>177.0</ele><time>2026-04-05T10:46:18.373Z</time></trkpt><trkpt lat="41.1688629" lon="1.0725359"><ele>177.0</ele><time>2026-04-05T10:46:20.372Z</time></trkpt><trkpt lat="41.1687554" lon="1.0725786"><ele>177.0</ele><time>2026-04-05T10:46:22.372Z</time></trkpt><trkpt lat="41.1686623" lon="1.0726311"><ele>177.0</ele><time>2026-04-05T10:46:24.372Z</time></trkpt><trkpt lat="41.1685797" lon="1.0726914"><ele>177.0</ele><time>2026-04-05T10:46:26.372Z</time></trkpt><trkpt lat="41.1685048" lon="1.072785"><ele>177.0</ele><time>2026-04-05T10:46:28.372Z</time></trkpt><trkpt lat="41.1684315" lon="1.072889"><ele>177.0</ele><time>2026-04-05T10:46:30.372Z</time></trkpt><trkpt lat="41.1683554" lon="1.0730138"><ele>177.0</ele><time>2026-04-05T10:46:32.372Z</time></trkpt><trkpt lat="41.1683157" lon="1.0730817"><ele>177.0</ele><time>2026-04-05T10:46:33.372Z</time></trkpt><trkpt lat="41.1682745" lon="1.0731466"><ele>177.0</ele><time>2026-04-05T10:46:34.372Z</time></trkpt><trkpt lat="41.1682017" lon="1.0732853"><ele>177.0</ele><time>2026-04-05T10:46:36.372Z</time></trkpt><trkpt lat="41.1681366" lon="1.0734144"><ele>176.39999999999998</ele><time>2026-04-05T10:46:38.372Z</time></trkpt><trkpt lat="41.1680698" lon="1.0735557"><ele>175.79999999999998</ele><time>2026-04-05T10:46:40.372Z</time></trkpt><trkpt lat="41.1679887" lon="1.0736786"><ele>175.2</ele><time>2026-04-05T10:46:42.373Z</time></trkpt><trkpt lat="41.1679377" lon="1.0737413"><ele>174.6</ele><time>2026-04-05T10:46:43.373Z</time></trkpt><trkpt lat="41.1678533" lon="1.0738578"><ele>174.0</ele><time>2026-04-05T10:46:45.373Z</time></trkpt><trkpt lat="41.167733" lon="1.0739074"><ele>174.0</ele><time>2026-04-05T10:46:47.373Z</time></trkpt><trkpt lat="41.1676131" lon="1.0738775"><ele>174.0</ele><time>2026-04-05T10:46:49.372Z</time></trkpt><trkpt lat="41.1675493" lon="1.0738734"><ele>174.0</ele><time>2026-04-05T10:46:50.372Z</time></trkpt><trkpt lat="41.1674842" lon="1.0738836"><ele>174.0</ele><time>2026-04-05T10:46:51.372Z</time></trkpt><trkpt lat="41.1674221" lon="1.073914"><ele>174.0</ele><time>2026-04-05T10:46:52.372Z</time></trkpt><trkpt lat="41.1673316" lon="1.074015"><ele>174.0</ele><time>2026-04-05T10:46:54.372Z</time></trkpt><trkpt lat="41.167251" lon="1.074146"><ele>173.39999999999998</ele><time>2026-04-05T10:46:56.372Z</time></trkpt><trkpt lat="41.1671678" lon="1.0742706"><ele>172.8</ele><time>2026-04-05T10:46:58.372Z</time></trkpt><trkpt lat="41.1670904" lon="1.0743837"><ele>172.2</ele><time>2026-04-05T10:47:00.372Z</time></trkpt><trkpt lat="41.167012" lon="1.0744934"><ele>171.60000000000002</ele><time>2026-04-05T10:47:02.372Z</time></trkpt><trkpt lat="41.1669615" lon="1.074549"><ele>171.0</ele><time>2026-04-05T10:47:03.372Z</time></trkpt><trkpt lat="41.1669056" lon="1.0746046"><ele>171.0</ele><time>2026-04-05T10:47:04.372Z</time></trkpt><trkpt lat="41.1668302" lon="1.0746997"><ele>171.0</ele><time>2026-04-05T10:47:06.373Z</time></trkpt><trkpt lat="41.1667506" lon="1.074797"><ele>171.0</ele><time>2026-04-05T10:47:08.373Z</time></trkpt><trkpt lat="41.1666819" lon="1.0749073"><ele>171.0</ele><time>2026-04-05T10:47:10.372Z</time></trkpt><trkpt lat="41.1666086" lon="1.0749982"><ele>171.0</ele><time>2026-04-05T10:47:12.372Z</time></trkpt><trkpt lat="41.1665375" lon="1.0750921"><ele>170.8</ele><time>2026-04-05T10:47:14.372Z</time></trkpt><trkpt lat="41.1664627" lon="1.0751875"><ele>170.60000000000002</ele><time>2026-04-05T10:47:16.373Z</time></trkpt><trkpt lat="41.1663852" lon="1.0752781"><ele>170.4</ele><time>2026-04-05T10:47:18.372Z</time></trkpt><trkpt lat="41.166297" lon="1.0753804"><ele>170.2</ele><time>2026-04-05T10:47:20.373Z</time></trkpt><trkpt lat="41.1662322" lon="1.0754564"><ele>170.0</ele><time>2026-04-05T10:47:22.372Z</time></trkpt><trkpt lat="41.16617" lon="1.0755128"><ele>170.0</ele><time>2026-04-05T10:47:25.373Z</time></trkpt><trkpt lat="41.1661039" lon="1.0754663"><ele>170.0</ele><time>2026-04-05T10:47:27.372Z</time></trkpt><trkpt lat="41.1660192" lon="1.0753877"><ele>170.0</ele><time>2026-04-05T10:47:29.372Z</time></trkpt><trkpt lat="41.1659094" lon="1.0754164"><ele>170.0</ele><time>2026-04-05T10:47:31.372Z</time></trkpt><trkpt lat="41.1658129" lon="1.0755138"><ele>170.0</ele><time>2026-04-05T10:47:33.372Z</time></trkpt><trkpt lat="41.1657082" lon="1.0756049"><ele>169.57142857142858</ele><time>2026-04-05T10:47:35.372Z</time></trkpt><trkpt lat="41.1656335" lon="1.0756629"><ele>169.14285714285714</ele><time>2026-04-05T10:47:36.372Z</time></trkpt><trkpt lat="41.1655799" lon="1.0757204"><ele>168.71428571428572</ele><time>2026-04-05T10:47:37.372Z</time></trkpt><trkpt lat="41.1655249" lon="1.0757816"><ele>168.28571428571428</ele><time>2026-04-05T10:47:38.372Z</time></trkpt><trkpt lat="41.1654558" lon="1.075826"><ele>167.85714285714286</ele><time>2026-04-05T10:47:39.372Z</time></trkpt><trkpt lat="41.1653987" lon="1.0758821"><ele>167.42857142857142</ele><time>2026-04-05T10:47:40.373Z</time></trkpt><trkpt lat="41.1653413" lon="1.0759403"><ele>167.0</ele><time>2026-04-05T10:47:41.372Z</time></trkpt><trkpt lat="41.1652775" lon="1.0759984"><ele>167.0</ele><time>2026-04-05T10:47:42.372Z</time></trkpt><trkpt lat="41.1652198" lon="1.0760529"><ele>167.0</ele><time>2026-04-05T10:47:43.373Z</time></trkpt><trkpt lat="41.1651528" lon="1.0761024"><ele>167.0</ele><time>2026-04-05T10:47:44.372Z</time></trkpt><trkpt lat="41.1650921" lon="1.0761536"><ele>167.0</ele><time>2026-04-05T10:47:45.372Z</time></trkpt><trkpt lat="41.1650296" lon="1.0762122"><ele>167.0</ele><time>2026-04-05T10:47:46.373Z</time></trkpt><trkpt lat="41.1649619" lon="1.0762673"><ele>167.0</ele><time>2026-04-05T10:47:47.372Z</time></trkpt><trkpt lat="41.1648986" lon="1.0763306"><ele>166.33333333333331</ele><time>2026-04-05T10:47:48.372Z</time></trkpt><trkpt lat="41.164833" lon="1.0763915"><ele>165.66666666666666</ele><time>2026-04-05T10:47:49.372Z</time></trkpt><trkpt lat="41.1647659" lon="1.0764591"><ele>165.0</ele><time>2026-04-05T10:47:50.372Z</time></trkpt><trkpt lat="41.1646987" lon="1.0765172"><ele>164.33333333333334</ele><time>2026-04-05T10:47:51.372Z</time></trkpt><trkpt lat="41.1646381" lon="1.076585"><ele>163.66666666666669</ele><time>2026-04-05T10:47:52.372Z</time></trkpt><trkpt lat="41.1645746" lon="1.0766488"><ele>163.0</ele><time>2026-04-05T10:47:53.372Z</time></trkpt><trkpt lat="41.164489" lon="1.0767058"><ele>163.0</ele><time>2026-04-05T10:47:54.373Z</time></trkpt><trkpt lat="41.1644391" lon="1.0767775"><ele>163.0</ele><time>2026-04-05T10:47:55.372Z</time></trkpt><trkpt lat="41.1643948" lon="1.0768514"><ele>163.0</ele><time>2026-04-05T10:47:56.372Z</time></trkpt><trkpt lat="41.1643564" lon="1.0769341"><ele>163.0</ele><time>2026-04-05T10:47:57.372Z</time></trkpt><trkpt lat="41.164323" lon="1.0770069"><ele>163.0</ele><time>2026-04-05T10:47:58.372Z</time></trkpt><trkpt lat="41.1642954" lon="1.0770877"><ele>163.0</ele><time>2026-04-05T10:47:59.372Z</time></trkpt><trkpt lat="41.1642162" lon="1.0771997"><ele>163.0</ele><time>2026-04-05T10:48:01.372Z</time></trkpt><trkpt lat="41.1641146" lon="1.0772105"><ele>163.0</ele><time>2026-04-05T10:48:03.373Z</time></trkpt><trkpt lat="41.1640009" lon="1.0772114"><ele>163.0</ele><time>2026-04-05T10:48:05.372Z</time></trkpt><trkpt lat="41.1639326" lon="1.0772363"><ele>163.0</ele><time>2026-04-05T10:48:06.372Z</time></trkpt><trkpt lat="41.1638636" lon="1.0772655"><ele>163.0</ele><time>2026-04-05T10:48:07.372Z</time></trkpt><trkpt lat="41.163794" lon="1.0772865"><ele>163.0</ele><time>2026-04-05T10:48:08.372Z</time></trkpt><trkpt lat="41.1637211" lon="1.0773255"><ele>162.20000000000002</ele><time>2026-04-05T10:48:09.372Z</time></trkpt><trkpt lat="41.1636167" lon="1.0774089"><ele>161.4</ele><time>2026-04-05T10:48:11.372Z</time></trkpt><trkpt lat="41.1635663" lon="1.07748"><ele>160.60000000000002</ele><time>2026-04-05T10:48:12.372Z</time></trkpt><trkpt lat="41.1634835" lon="1.0775453"><ele>159.8</ele><time>2026-04-05T10:48:13.372Z</time></trkpt><trkpt lat="41.1634036" lon="1.0775951"><ele>159.0</ele><time>2026-04-05T10:48:14.372Z</time></trkpt><trkpt lat="41.1633281" lon="1.0776951"><ele>158.4</ele><time>2026-04-05T10:48:15.372Z</time></trkpt><trkpt lat="41.1632737" lon="1.0778353"><ele>157.8</ele><time>2026-04-05T10:48:17.372Z</time></trkpt><trkpt lat="41.163268" lon="1.0779266"><ele>157.2</ele><time>2026-04-05T10:48:18.372Z</time></trkpt><trkpt lat="41.1632819" lon="1.0780269"><ele>156.6</ele><time>2026-04-05T10:48:19.372Z</time></trkpt><trkpt lat="41.1632018" lon="1.0779729"><ele>156.0</ele><time>2026-04-05T10:48:20.373Z</time></trkpt><trkpt lat="41.1631219" lon="1.0781356"><ele>155.2</ele><time>2026-04-05T10:48:21.372Z</time></trkpt><trkpt lat="41.1630472" lon="1.0782226"><ele>154.39999999999998</ele><time>2026-04-05T10:48:22.372Z</time></trkpt><trkpt lat="41.1629907" lon="1.0783028"><ele>153.6</ele><time>2026-04-05T10:48:23.372Z</time></trkpt><trkpt lat="41.1629004" lon="1.0783795"><ele>152.79999999999998</ele><time>2026-04-05T10:48:24.372Z</time></trkpt><trkpt lat="41.1628053" lon="1.0784639"><ele>152.0</ele><time>2026-04-05T10:48:25.373Z</time></trkpt><trkpt lat="41.1625615" lon="1.0784831"><ele>152.0</ele><time>2026-04-05T10:48:26.372Z</time></trkpt><trkpt lat="41.1625252" lon="1.0785557"><ele>152.0</ele><time>2026-04-05T10:48:27.372Z</time></trkpt><trkpt lat="41.1624858" lon="1.0786446"><ele>152.0</ele><time>2026-04-05T10:48:29.372Z</time></trkpt><trkpt lat="41.1624231" lon="1.0787326"><ele>152.0</ele><time>2026-04-05T10:48:31.373Z</time></trkpt><trkpt lat="41.1623713" lon="1.0788201"><ele>152.0</ele><time>2026-04-05T10:48:33.372Z</time></trkpt><trkpt lat="41.1623053" lon="1.0788289"><ele>152.0</ele><time>2026-04-05T10:48:34.372Z</time></trkpt><trkpt lat="41.162278" lon="1.0789328"><ele>152.0</ele><time>2026-04-05T10:48:36.373Z</time></trkpt><trkpt lat="41.1620307" lon="1.0789926"><ele>152.0</ele><time>2026-04-05T10:48:38.372Z</time></trkpt><trkpt lat="41.1618958" lon="1.0790265"><ele>152.0</ele><time>2026-04-05T10:48:39.372Z</time></trkpt><trkpt lat="41.1618115" lon="1.0790681"><ele>151.85714285714286</ele><time>2026-04-05T10:48:40.372Z</time></trkpt><trkpt lat="41.1617347" lon="1.0791048"><ele>151.71428571428572</ele><time>2026-04-05T10:48:41.372Z</time></trkpt><trkpt lat="41.1616651" lon="1.0791377"><ele>151.57142857142858</ele><time>2026-04-05T10:48:42.372Z</time></trkpt><trkpt lat="41.1616061" lon="1.0791788"><ele>151.42857142857144</ele><time>2026-04-05T10:48:45.372Z</time></trkpt><trkpt lat="41.1615784" lon="1.0792695"><ele>151.28571428571428</ele><time>2026-04-05T10:48:52.372Z</time></trkpt><trkpt lat="41.161516" lon="1.0793389"><ele>151.14285714285717</ele><time>2026-04-05T10:48:58.373Z</time></trkpt><trkpt lat="41.161472" lon="1.0794042"><ele>151.0</ele><time>2026-04-05T10:49:00.372Z</time></trkpt><trkpt lat="41.1614408" lon="1.0794929"><ele>150.4</ele><time>2026-04-05T10:49:02.372Z</time></trkpt><trkpt lat="41.1614154" lon="1.0795922"><ele>149.8</ele><time>2026-04-05T10:49:04.372Z</time></trkpt><trkpt lat="41.1613833" lon="1.0797002"><ele>149.20000000000002</ele><time>2026-04-05T10:49:06.373Z</time></trkpt><trkpt lat="41.1613576" lon="1.0798211"><ele>148.6</ele><time>2026-04-05T10:49:08.373Z</time></trkpt><trkpt lat="41.1613231" lon="1.0799481"><ele>148.0</ele><time>2026-04-05T10:49:10.372Z</time></trkpt><trkpt lat="41.1612859" lon="1.0800849"><ele>147.75</ele><time>2026-04-05T10:49:12.372Z</time></trkpt><trkpt lat="41.1612417" lon="1.0802241"><ele>147.5</ele><time>2026-04-05T10:49:14.372Z</time></trkpt><trkpt lat="41.161197" lon="1.0803703"><ele>147.25</ele><time>2026-04-05T10:49:16.372Z</time></trkpt><trkpt lat="41.1611545" lon="1.0805235"><ele>147.0</ele><time>2026-04-05T10:49:18.372Z</time></trkpt><trkpt lat="41.1611171" lon="1.0806706"><ele>147.0</ele><time>2026-04-05T10:49:20.372Z</time></trkpt><trkpt lat="41.1610928" lon="1.0808249"><ele>147.0</ele><time>2026-04-05T10:49:22.373Z</time></trkpt><trkpt lat="41.1610666" lon="1.0809786"><ele>147.0</ele><time>2026-04-05T10:49:24.372Z</time></trkpt><trkpt lat="41.1610419" lon="1.0810692"><ele>147.0</ele><time>2026-04-05T10:49:25.372Z</time></trkpt><trkpt lat="41.1609865" lon="1.08115"><ele>147.0</ele><time>2026-04-05T10:49:26.372Z</time></trkpt><trkpt lat="41.1609351" lon="1.0812117"><ele>147.0</ele><time>2026-04-05T10:49:27.372Z</time></trkpt><trkpt lat="41.1608262" lon="1.0813007"><ele>147.0</ele><time>2026-04-05T10:49:29.372Z</time></trkpt><trkpt lat="41.1607697" lon="1.0813405"><ele>147.0</ele><time>2026-04-05T10:49:30.372Z</time></trkpt><trkpt lat="41.1607168" lon="1.0813981"><ele>147.0</ele><time>2026-04-05T10:49:31.372Z</time></trkpt><trkpt lat="41.1606543" lon="1.0814605"><ele>147.0</ele><time>2026-04-05T10:49:32.372Z</time></trkpt><trkpt lat="41.1606238" lon="1.0815412"><ele>147.0</ele><time>2026-04-05T10:49:33.372Z</time></trkpt><trkpt lat="41.1606282" lon="1.0816262"><ele>146.16666666666666</ele><time>2026-04-05T10:49:34.373Z</time></trkpt><trkpt lat="41.1606419" lon="1.0817921"><ele>145.33333333333334</ele><time>2026-04-05T10:49:36.372Z</time></trkpt><trkpt lat="41.1606652" lon="1.0818772"><ele>144.5</ele><time>2026-04-05T10:49:37.373Z</time></trkpt><trkpt lat="41.1606848" lon="1.0819591"><ele>143.66666666666669</ele><time>2026-04-05T10:49:38.372Z</time></trkpt><trkpt lat="41.1606879" lon="1.082045"><ele>142.83333333333334</ele><time>2026-04-05T10:49:39.372Z</time></trkpt><trkpt lat="41.160679" lon="1.0821358"><ele>142.0</ele><time>2026-04-05T10:49:40.372Z</time></trkpt><trkpt lat="41.1606612" lon="1.0822219"><ele>142.0</ele><time>2026-04-05T10:49:41.372Z</time></trkpt><trkpt lat="41.1606428" lon="1.0823031"><ele>142.0</ele><time>2026-04-05T10:49:42.372Z</time></trkpt><trkpt lat="41.1606189" lon="1.082388"><ele>142.0</ele><time>2026-04-05T10:49:43.372Z</time></trkpt><trkpt lat="41.1605982" lon="1.08247"><ele>142.0</ele><time>2026-04-05T10:49:44.372Z</time></trkpt><trkpt lat="41.1605751" lon="1.0825497"><ele>142.0</ele><time>2026-04-05T10:49:45.373Z</time></trkpt><trkpt lat="41.1605535" lon="1.0826388"><ele>142.0</ele><time>2026-04-05T10:49:46.372Z</time></trkpt><trkpt lat="41.1605303" lon="1.0827181"><ele>142.0</ele><time>2026-04-05T10:49:47.372Z</time></trkpt><trkpt lat="41.1605115" lon="1.0828022"><ele>142.0</ele><time>2026-04-05T10:49:48.372Z</time></trkpt><trkpt lat="41.1604925" lon="1.0828848"><ele>142.0</ele><time>2026-04-05T10:49:49.372Z</time></trkpt><trkpt lat="41.1604633" lon="1.0829645"><ele>142.0</ele><time>2026-04-05T10:49:50.372Z</time></trkpt><trkpt lat="41.1604344" lon="1.0830493"><ele>142.0</ele><time>2026-04-05T10:49:51.372Z</time></trkpt><trkpt lat="41.1603974" lon="1.0832114"><ele>142.0</ele><time>2026-04-05T10:49:53.372Z</time></trkpt><trkpt lat="41.1603746" lon="1.0832957"><ele>142.0</ele><time>2026-04-05T10:49:54.372Z</time></trkpt><trkpt lat="41.1603514" lon="1.0833768"><ele>142.0</ele><time>2026-04-05T10:49:55.372Z</time></trkpt><trkpt lat="41.16032" lon="1.0835368"><ele>142.0</ele><time>2026-04-05T10:49:57.372Z</time></trkpt><trkpt lat="41.1602834" lon="1.0836976"><ele>142.0</ele><time>2026-04-05T10:49:59.372Z</time></trkpt><trkpt lat="41.1602453" lon="1.0838567"><ele>142.0</ele><time>2026-04-05T10:50:01.372Z</time></trkpt><trkpt lat="41.1602276" lon="1.083939"><ele>142.0</ele><time>2026-04-05T10:50:02.372Z</time></trkpt><trkpt lat="41.1602072" lon="1.0840204"><ele>141.83333333333334</ele><time>2026-04-05T10:50:03.372Z</time></trkpt><trkpt lat="41.1601877" lon="1.0841045"><ele>141.66666666666669</ele><time>2026-04-05T10:50:04.372Z</time></trkpt><trkpt lat="41.1601621" lon="1.084184"><ele>141.5</ele><time>2026-04-05T10:50:05.372Z</time></trkpt><trkpt lat="41.1601413" lon="1.0842674"><ele>141.33333333333334</ele><time>2026-04-05T10:50:06.372Z</time></trkpt><trkpt lat="41.1601199" lon="1.0843483"><ele>141.16666666666666</ele><time>2026-04-05T10:50:07.373Z</time></trkpt><trkpt lat="41.1600792" lon="1.0845067"><ele>141.0</ele><time>2026-04-05T10:50:09.372Z</time></trkpt><trkpt lat="41.1600609" lon="1.0845915"><ele>141.0</ele><time>2026-04-05T10:50:10.372Z</time></trkpt><trkpt lat="41.1600362" lon="1.0846722"><ele>141.0</ele><time>2026-04-05T10:50:11.372Z</time></trkpt><trkpt lat="41.1600058" lon="1.0847537"><ele>141.0</ele><time>2026-04-05T10:50:12.372Z</time></trkpt><trkpt lat="41.1599744" lon="1.084892"><ele>141.0</ele><time>2026-04-05T10:50:14.372Z</time></trkpt><trkpt lat="41.1599443" lon="1.0850285"><ele>141.0</ele><time>2026-04-05T10:50:16.372Z</time></trkpt><trkpt lat="41.159872" lon="1.0851172"><ele>141.0</ele><time>2026-04-05T10:50:18.372Z</time></trkpt><trkpt lat="41.1598107" lon="1.0851663"><ele>140.4</ele><time>2026-04-05T10:50:21.372Z</time></trkpt><trkpt lat="41.1597436" lon="1.0852607"><ele>139.8</ele><time>2026-04-05T10:50:24.372Z</time></trkpt><trkpt lat="41.1597197" lon="1.0853655"><ele>139.20000000000002</ele><time>2026-04-05T10:50:26.372Z</time></trkpt><trkpt lat="41.1597537" lon="1.0854857"><ele>138.6</ele><time>2026-04-05T10:50:28.372Z</time></trkpt><trkpt lat="41.1597669" lon="1.0856065"><ele>138.0</ele><time>2026-04-05T10:50:30.372Z</time></trkpt><trkpt lat="41.1597515" lon="1.0857417"><ele>138.0</ele><time>2026-04-05T10:50:32.372Z</time></trkpt><trkpt lat="41.1597191" lon="1.0858675"><ele>138.0</ele><time>2026-04-05T10:50:34.372Z</time></trkpt><trkpt lat="41.1596929" lon="1.0859979"><ele>138.0</ele><time>2026-04-05T10:50:36.372Z</time></trkpt><trkpt lat="41.1596809" lon="1.0861338"><ele>138.0</ele><time>2026-04-05T10:50:38.372Z</time></trkpt><trkpt lat="41.1596412" lon="1.0862856"><ele>138.0</ele><time>2026-04-05T10:50:40.372Z</time></trkpt><trkpt lat="41.1596013" lon="1.0864378"><ele>138.0</ele><time>2026-04-05T10:50:42.373Z</time></trkpt><trkpt lat="41.1595576" lon="1.0865836"><ele>138.0</ele><time>2026-04-05T10:50:44.372Z</time></trkpt><trkpt lat="41.1595343" lon="1.0866627"><ele>138.0</ele><time>2026-04-05T10:50:45.373Z</time></trkpt><trkpt lat="41.1594969" lon="1.086808"><ele>138.0</ele><time>2026-04-05T10:50:47.373Z</time></trkpt><trkpt lat="41.1594558" lon="1.0869532"><ele>138.0</ele><time>2026-04-05T10:50:49.372Z</time></trkpt><trkpt lat="41.1594193" lon="1.0870838"><ele>138.0</ele><time>2026-04-05T10:50:51.372Z</time></trkpt><trkpt lat="41.159393" lon="1.0871938"><ele>138.0</ele><time>2026-04-05T10:50:53.372Z</time></trkpt><trkpt lat="41.1593806" lon="1.0872859"><ele>138.0</ele><time>2026-04-05T10:51:52.373Z</time></trkpt><trkpt lat="41.1593711" lon="1.0873765"><ele>138.0</ele><time>2026-04-05T10:51:57.372Z</time></trkpt><trkpt lat="41.1593674" lon="1.0874786"><ele>138.0</ele><time>2026-04-05T10:52:01.372Z</time></trkpt><trkpt lat="41.1593536" lon="1.0875659"><ele>138.0</ele><time>2026-04-05T10:52:03.372Z</time></trkpt><trkpt lat="41.1593347" lon="1.0876485"><ele>138.0</ele><time>2026-04-05T10:52:05.373Z</time></trkpt><trkpt lat="41.1593075" lon="1.0877398"><ele>137.66666666666666</ele><time>2026-04-05T10:52:07.372Z</time></trkpt><trkpt lat="41.1592799" lon="1.0878347"><ele>137.33333333333334</ele><time>2026-04-05T10:52:09.372Z</time></trkpt><trkpt lat="41.1592562" lon="1.0879313"><ele>137.0</ele><time>2026-04-05T10:52:11.372Z</time></trkpt><trkpt lat="41.1592285" lon="1.0880338"><ele>136.66666666666669</ele><time>2026-04-05T10:52:13.373Z</time></trkpt><trkpt lat="41.1591969" lon="1.0881436"><ele>136.33333333333334</ele><time>2026-04-05T10:52:15.372Z</time></trkpt><trkpt lat="41.1591858" lon="1.0882572"><ele>136.0</ele><time>2026-04-05T10:52:17.372Z</time></trkpt><trkpt lat="41.159151" lon="1.0883682"><ele>136.0</ele><time>2026-04-05T10:52:19.372Z</time></trkpt><trkpt lat="41.1591315" lon="1.0884845"><ele>136.0</ele><time>2026-04-05T10:52:21.372Z</time></trkpt><trkpt lat="41.1591093" lon="1.0886047"><ele>136.0</ele><time>2026-04-05T10:52:23.372Z</time></trkpt><trkpt lat="41.1590686" lon="1.0887133"><ele>136.0</ele><time>2026-04-05T10:52:25.372Z</time></trkpt><trkpt lat="41.1590416" lon="1.0888165"><ele>136.0</ele><time>2026-04-05T10:52:27.373Z</time></trkpt><trkpt lat="41.1590143" lon="1.0889369"><ele>136.0</ele><time>2026-04-05T10:52:29.372Z</time></trkpt><trkpt lat="41.1589802" lon="1.0890637"><ele>136.0</ele><time>2026-04-05T10:52:31.372Z</time></trkpt><trkpt lat="41.1589469" lon="1.0891842"><ele>136.0</ele><time>2026-04-05T10:52:33.372Z</time></trkpt><trkpt lat="41.1589173" lon="1.0893015"><ele>136.0</ele><time>2026-04-05T10:52:35.372Z</time></trkpt><trkpt lat="41.1588831" lon="1.0894248"><ele>136.0</ele><time>2026-04-05T10:52:37.373Z</time></trkpt><trkpt lat="41.1588648" lon="1.0895402"><ele>135.4</ele><time>2026-04-05T10:52:39.372Z</time></trkpt><trkpt lat="41.1588298" lon="1.089665"><ele>134.8</ele><time>2026-04-05T10:52:41.373Z</time></trkpt><trkpt lat="41.1587861" lon="1.089797"><ele>134.20000000000002</ele><time>2026-04-05T10:52:43.372Z</time></trkpt><trkpt lat="41.1587447" lon="1.0899374"><ele>133.6</ele><time>2026-04-05T10:52:45.372Z</time></trkpt><trkpt lat="41.1587075" lon="1.090072"><ele>133.0</ele><time>2026-04-05T10:52:47.372Z</time></trkpt><trkpt lat="41.158669" lon="1.0902"><ele>133.0</ele><time>2026-04-05T10:52:49.372Z</time></trkpt><trkpt lat="41.1586219" lon="1.0903472"><ele>133.0</ele><time>2026-04-05T10:52:51.373Z</time></trkpt><trkpt lat="41.1585835" lon="1.090485"><ele>133.0</ele><time>2026-04-05T10:52:53.372Z</time></trkpt><trkpt lat="41.1585485" lon="1.0906228"><ele>133.0</ele><time>2026-04-05T10:52:55.373Z</time></trkpt><trkpt lat="41.1585042" lon="1.090778"><ele>133.5</ele><time>2026-04-05T10:52:57.372Z</time></trkpt><trkpt lat="41.1584448" lon="1.0909154"><ele>134.0</ele><time>2026-04-05T10:52:59.372Z</time></trkpt><trkpt lat="41.1584159" lon="1.0910635"><ele>134.5</ele><time>2026-04-05T10:53:01.372Z</time></trkpt><trkpt lat="41.158377" lon="1.0912105"><ele>135.0</ele><time>2026-04-05T10:53:03.372Z</time></trkpt><trkpt lat="41.1583325" lon="1.0913596"><ele>135.0</ele><time>2026-04-05T10:53:05.372Z</time></trkpt><trkpt lat="41.1582998" lon="1.0915019"><ele>135.0</ele><time>2026-04-05T10:53:07.372Z</time></trkpt><trkpt lat="41.1582698" lon="1.0916428"><ele>135.0</ele><time>2026-04-05T10:53:09.372Z</time></trkpt><trkpt lat="41.1582401" lon="1.09172"><ele>135.0</ele><time>2026-04-05T10:53:10.372Z</time></trkpt><trkpt lat="41.1581959" lon="1.0918821"><ele>135.0</ele><time>2026-04-05T10:53:12.373Z</time></trkpt><trkpt lat="41.1581584" lon="1.0920256"><ele>134.66666666666666</ele><time>2026-04-05T10:53:14.372Z</time></trkpt><trkpt lat="41.1581246" lon="1.0921755"><ele>134.33333333333334</ele><time>2026-04-05T10:53:16.372Z</time></trkpt><trkpt lat="41.1580905" lon="1.0923392"><ele>134.0</ele><time>2026-04-05T10:53:18.372Z</time></trkpt><trkpt lat="41.1580727" lon="1.0924235"><ele>133.66666666666669</ele><time>2026-04-05T10:53:19.372Z</time></trkpt><trkpt lat="41.1580527" lon="1.0925059"><ele>133.33333333333334</ele><time>2026-04-05T10:53:20.372Z</time></trkpt><trkpt lat="41.1580375" lon="1.0925883"><ele>133.0</ele><time>2026-04-05T10:53:21.372Z</time></trkpt><trkpt lat="41.1580178" lon="1.0926689"><ele>133.0</ele><time>2026-04-05T10:53:22.373Z</time></trkpt><trkpt lat="41.1579787" lon="1.0928212"><ele>133.0</ele><time>2026-04-05T10:53:24.372Z</time></trkpt><trkpt lat="41.1579367" lon="1.0929782"><ele>133.0</ele><time>2026-04-05T10:53:26.372Z</time></trkpt><trkpt lat="41.1578988" lon="1.0931366"><ele>133.0</ele><time>2026-04-05T10:53:28.372Z</time></trkpt><trkpt lat="41.1578812" lon="1.0932262"><ele>133.0</ele><time>2026-04-05T10:53:29.372Z</time></trkpt><trkpt lat="41.1578546" lon="1.093305"><ele>133.0</ele><time>2026-04-05T10:53:30.373Z</time></trkpt><trkpt lat="41.1578358" lon="1.0933858"><ele>133.0</ele><time>2026-04-05T10:53:31.372Z</time></trkpt><trkpt lat="41.1578031" lon="1.0935291"><ele>133.0</ele><time>2026-04-05T10:53:33.373Z</time></trkpt><trkpt lat="41.1577708" lon="1.0936886"><ele>133.0</ele><time>2026-04-05T10:53:35.372Z</time></trkpt><trkpt lat="41.1577308" lon="1.093844"><ele>133.0</ele><time>2026-04-05T10:53:37.372Z</time></trkpt><trkpt lat="41.1576938" lon="1.0939922"><ele>132.8</ele><time>2026-04-05T10:53:39.372Z</time></trkpt><trkpt lat="41.1576587" lon="1.0941292"><ele>132.60000000000002</ele><time>2026-04-05T10:53:41.373Z</time></trkpt><trkpt lat="41.157629" lon="1.0942756"><ele>132.39999999999998</ele><time>2026-04-05T10:53:43.372Z</time></trkpt><trkpt lat="41.1576119" lon="1.0943601"><ele>132.2</ele><time>2026-04-05T10:53:44.372Z</time></trkpt><trkpt lat="41.1575847" lon="1.0945044"><ele>132.0</ele><time>2026-04-05T10:53:46.372Z</time></trkpt><trkpt lat="41.1575436" lon="1.0946395"><ele>132.0</ele><time>2026-04-05T10:53:48.372Z</time></trkpt><trkpt lat="41.1575216" lon="1.0947686"><ele>132.0</ele><time>2026-04-05T10:53:50.372Z</time></trkpt><trkpt lat="41.1575069" lon="1.0949081"><ele>132.0</ele><time>2026-04-05T10:53:52.372Z</time></trkpt><trkpt lat="41.1574436" lon="1.0950477"><ele>132.0</ele><time>2026-04-05T10:53:54.372Z</time></trkpt><trkpt lat="41.1574093" lon="1.0951779"><ele>132.0</ele><time>2026-04-05T10:53:56.372Z</time></trkpt><trkpt lat="41.1573741" lon="1.0953095"><ele>131.4</ele><time>2026-04-05T10:53:58.372Z</time></trkpt><trkpt lat="41.1573557" lon="1.0954514"><ele>130.79999999999998</ele><time>2026-04-05T10:54:00.372Z</time></trkpt><trkpt lat="41.1573217" lon="1.0955745"><ele>130.2</ele><time>2026-04-05T10:54:02.372Z</time></trkpt><trkpt lat="41.1573098" lon="1.0956935"><ele>129.6</ele><time>2026-04-05T10:54:04.372Z</time></trkpt><trkpt lat="41.157293" lon="1.095809"><ele>129.0</ele><time>2026-04-05T10:54:06.373Z</time></trkpt><trkpt lat="41.1572905" lon="1.0959271"><ele>128.8</ele><time>2026-04-05T10:54:08.372Z</time></trkpt><trkpt lat="41.1572052" lon="1.0960421"><ele>128.60000000000002</ele><time>2026-04-05T10:54:10.373Z</time></trkpt><trkpt lat="41.1571445" lon="1.0960679"><ele>128.4</ele><time>2026-04-05T10:54:11.372Z</time></trkpt><trkpt lat="41.1569895" lon="1.0960982"><ele>128.20000000000002</ele><time>2026-04-05T10:54:12.372Z</time></trkpt><trkpt lat="41.1569526" lon="1.0961897"><ele>128.0</ele><time>2026-04-05T10:54:14.373Z</time></trkpt><trkpt lat="41.1569336" lon="1.0963082"><ele>127.99999999999999</ele><time>2026-04-05T10:54:16.372Z</time></trkpt><trkpt lat="41.1569301" lon="1.096435"><ele>128.0</ele><time>2026-04-05T10:54:18.372Z</time></trkpt><trkpt lat="41.1569581" lon="1.0965541"><ele>128.0</ele><time>2026-04-05T10:54:20.372Z</time></trkpt><trkpt lat="41.1569742" lon="1.0966555"><ele>128.0</ele><time>2026-04-05T10:54:22.373Z</time></trkpt><trkpt lat="41.1569733" lon="1.0967478"><ele>127.99999999999999</ele><time>2026-04-05T10:54:25.373Z</time></trkpt><trkpt lat="41.1569665" lon="1.0968475"><ele>128.0</ele><time>2026-04-05T10:54:29.373Z</time></trkpt><trkpt lat="41.1569485" lon="1.0969345"><ele>128.33333333333331</ele><time>2026-04-05T10:54:31.372Z</time></trkpt><trkpt lat="41.1569348" lon="1.0970276"><ele>128.66666666666666</ele><time>2026-04-05T10:54:33.372Z</time></trkpt><trkpt lat="41.1569218" lon="1.0971369"><ele>129.0</ele><time>2026-04-05T10:54:35.372Z</time></trkpt><trkpt lat="41.1569157" lon="1.0972413"><ele>129.33333333333334</ele><time>2026-04-05T10:54:37.372Z</time></trkpt><trkpt lat="41.1569393" lon="1.0973569"><ele>129.66666666666669</ele><time>2026-04-05T10:54:39.372Z</time></trkpt><trkpt lat="41.1569536" lon="1.0975062"><ele>130.0</ele><time>2026-04-05T10:54:41.372Z</time></trkpt><trkpt lat="41.156926" lon="1.0975896"><ele>131.2</ele><time>2026-04-05T10:54:42.372Z</time></trkpt><trkpt lat="41.1568916" lon="1.0976956"><ele>132.4</ele><time>2026-04-05T10:54:43.372Z</time></trkpt><trkpt lat="41.1568437" lon="1.0978266"><ele>133.6</ele><time>2026-04-05T10:54:45.372Z</time></trkpt><trkpt lat="41.1568209" lon="1.097931"><ele>134.8</ele><time>2026-04-05T10:54:47.372Z</time></trkpt><trkpt lat="41.1567803" lon="1.0980569"><ele>136.0</ele><time>2026-04-05T10:54:49.372Z</time></trkpt><trkpt lat="41.1567382" lon="1.0981797"><ele>136.0</ele><time>2026-04-05T10:54:51.372Z</time></trkpt><trkpt lat="41.1567281" lon="1.0983183"><ele>136.0</ele><time>2026-04-05T10:54:53.373Z</time></trkpt><trkpt lat="41.1567113" lon="1.0984478"><ele>136.0</ele><time>2026-04-05T10:54:55.372Z</time></trkpt><trkpt lat="41.1566683" lon="1.0985497"><ele>136.0</ele><time>2026-04-05T10:54:57.372Z</time></trkpt><trkpt lat="41.1566167" lon="1.0986642"><ele>136.0</ele><time>2026-04-05T10:54:59.372Z</time></trkpt><trkpt lat="41.1565973" lon="1.0987925"><ele>136.0</ele><time>2026-04-05T10:55:01.372Z</time></trkpt><trkpt lat="41.156584" lon="1.0989141"><ele>136.0</ele><time>2026-04-05T10:55:03.372Z</time></trkpt><trkpt lat="41.1565825" lon="1.0990197"><ele>136.0</ele><time>2026-04-05T10:55:05.372Z</time></trkpt><trkpt lat="41.15658" lon="1.0991396"><ele>136.0</ele><time>2026-04-05T10:55:07.372Z</time></trkpt><trkpt lat="41.1565574" lon="1.0992587"><ele>136.0</ele><time>2026-04-05T10:55:09.372Z</time></trkpt><trkpt lat="41.1565355" lon="1.0993945"><ele>135.6</ele><time>2026-04-05T10:55:11.372Z</time></trkpt><trkpt lat="41.1565294" lon="1.0995422"><ele>135.2</ele><time>2026-04-05T10:55:13.373Z</time></trkpt><trkpt lat="41.1565131" lon="1.0996737"><ele>134.8</ele><time>2026-04-05T10:55:15.372Z</time></trkpt><trkpt lat="41.1565108" lon="1.0998224"><ele>134.4</ele><time>2026-04-05T10:55:17.372Z</time></trkpt><trkpt lat="41.1564978" lon="1.0999564"><ele>134.0</ele><time>2026-04-05T10:55:19.372Z</time></trkpt><trkpt lat="41.1564871" lon="1.1000938"><ele>133.25</ele><time>2026-04-05T10:55:21.372Z</time></trkpt><trkpt lat="41.1564549" lon="1.1002356"><ele>132.5</ele><time>2026-04-05T10:55:23.372Z</time></trkpt><trkpt lat="41.1564323" lon="1.1003813"><ele>131.75</ele><time>2026-04-05T10:55:25.372Z</time></trkpt><trkpt lat="41.1564067" lon="1.1005247"><ele>131.0</ele><time>2026-04-05T10:55:27.372Z</time></trkpt><trkpt lat="41.156359" lon="1.1006761"><ele>130.8</ele><time>2026-04-05T10:55:29.372Z</time></trkpt><trkpt lat="41.1563305" lon="1.1008276"><ele>130.6</ele><time>2026-04-05T10:55:31.372Z</time></trkpt><trkpt lat="41.1563217" lon="1.1009208"><ele>130.4</ele><time>2026-04-05T10:55:32.372Z</time></trkpt><trkpt lat="41.1563207" lon="1.1010117"><ele>130.2</ele><time>2026-04-05T10:55:33.373Z</time></trkpt><trkpt lat="41.1563183" lon="1.1011617"><ele>130.0</ele><time>2026-04-05T10:55:35.372Z</time></trkpt><trkpt lat="41.1563134" lon="1.1013044"><ele>130.0</ele><time>2026-04-05T10:55:37.373Z</time></trkpt><trkpt lat="41.1563096" lon="1.10143"><ele>130.0</ele><time>2026-04-05T10:55:39.372Z</time></trkpt><trkpt lat="41.1562925" lon="1.1015147"><ele>130.0</ele><time>2026-04-05T10:55:41.372Z</time></trkpt><trkpt lat="41.1562377" lon="1.1015894"><ele>130.0</ele><time>2026-04-05T10:55:43.372Z</time></trkpt><trkpt lat="41.1561693" lon="1.1016897"><ele>130.0</ele><time>2026-04-05T10:55:46.372Z</time></trkpt><trkpt lat="41.1561505" lon="1.101797"><ele>130.0</ele><time>2026-04-05T10:55:48.373Z</time></trkpt><trkpt lat="41.156167" lon="1.1018792"><ele>130.25</ele><time>2026-04-05T10:55:50.372Z</time></trkpt><trkpt lat="41.1562228" lon="1.1019705"><ele>130.5</ele><time>2026-04-05T10:55:53.373Z</time></trkpt><trkpt lat="41.1562566" lon="1.1020666"><ele>130.75</ele><time>2026-04-05T10:55:56.373Z</time></trkpt><trkpt lat="41.1562585" lon="1.1021995"><ele>131.0</ele><time>2026-04-05T10:55:58.372Z</time></trkpt><trkpt lat="41.1562406" lon="1.1026469"><ele>131.25</ele><time>2026-04-05T10:56:00.373Z</time></trkpt><trkpt lat="41.1562285" lon="1.1027957"><ele>131.5</ele><time>2026-04-05T10:56:02.373Z</time></trkpt><trkpt lat="41.1562191" lon="1.102948"><ele>131.75</ele><time>2026-04-05T10:56:04.372Z</time></trkpt><trkpt lat="41.1562131" lon="1.1030956"><ele>132.0</ele><time>2026-04-05T10:56:06.373Z</time></trkpt><trkpt lat="41.1562144" lon="1.1032456"><ele>132.0</ele><time>2026-04-05T10:56:08.372Z</time></trkpt><trkpt lat="41.1562188" lon="1.1033971"><ele>132.0</ele><time>2026-04-05T10:56:10.373Z</time></trkpt><trkpt lat="41.1562272" lon="1.1034803"><ele>132.0</ele><time>2026-04-05T10:56:11.372Z</time></trkpt><trkpt lat="41.1562255" lon="1.1036283"><ele>132.0</ele><time>2026-04-05T10:56:13.372Z</time></trkpt><trkpt lat="41.1562097" lon="1.1037904"><ele>132.0</ele><time>2026-04-05T10:56:15.372Z</time></trkpt><trkpt lat="41.1562013" lon="1.103938"><ele>132.0</ele><time>2026-04-05T10:56:17.372Z</time></trkpt><trkpt lat="41.1561942" lon="1.1040777"><ele>132.0</ele><time>2026-04-05T10:56:19.372Z</time></trkpt><trkpt lat="41.1561844" lon="1.1042255"><ele>132.0</ele><time>2026-04-05T10:56:21.373Z</time></trkpt><trkpt lat="41.1561894" lon="1.1043524"><ele>132.0</ele><time>2026-04-05T10:56:23.372Z</time></trkpt><trkpt lat="41.1562017" lon="1.104463"><ele>132.0</ele><time>2026-04-05T10:56:26.372Z</time></trkpt><trkpt lat="41.1561528" lon="1.1045417"><ele>131.79999999999998</ele><time>2026-04-05T10:56:29.373Z</time></trkpt><trkpt lat="41.1560914" lon="1.1045714"><ele>131.6</ele><time>2026-04-05T10:56:31.372Z</time></trkpt><trkpt lat="41.1559991" lon="1.1045985"><ele>131.39999999999998</ele><time>2026-04-05T10:56:33.372Z</time></trkpt><trkpt lat="41.1558721" lon="1.1046124"><ele>131.2</ele><time>2026-04-05T10:56:34.372Z</time></trkpt><trkpt lat="41.1558037" lon="1.1046269"><ele>131.0</ele><time>2026-04-05T10:56:35.372Z</time></trkpt><trkpt lat="41.1556978" lon="1.1046534"><ele>130.2</ele><time>2026-04-05T10:56:37.372Z</time></trkpt><trkpt lat="41.1555929" lon="1.1046475"><ele>129.39999999999998</ele><time>2026-04-05T10:56:39.372Z</time></trkpt><trkpt lat="41.1554997" lon="1.1047039"><ele>128.6</ele><time>2026-04-05T10:56:41.373Z</time></trkpt><trkpt lat="41.1553736" lon="1.1047352"><ele>127.8</ele><time>2026-04-05T10:56:43.372Z</time></trkpt><trkpt lat="41.1552832" lon="1.1047805"><ele>127.0</ele><time>2026-04-05T10:56:45.372Z</time></trkpt><trkpt lat="41.155219" lon="1.1047414"><ele>127.00000000000001</ele><time>2026-04-05T10:56:46.372Z</time></trkpt><trkpt lat="41.1551216" lon="1.1047203"><ele>127.0</ele><time>2026-04-05T10:56:48.372Z</time></trkpt><trkpt lat="41.1550319" lon="1.1047377"><ele>127.0</ele><time>2026-04-05T10:56:50.372Z</time></trkpt><trkpt lat="41.154953" lon="1.1047065"><ele>127.0</ele><time>2026-04-05T10:56:53.373Z</time></trkpt><trkpt lat="41.1548959" lon="1.1047496"><ele>127.00000000000001</ele><time>2026-04-05T10:56:56.372Z</time></trkpt><trkpt lat="41.1548882" lon="1.1048347"><ele>127.0</ele><time>2026-04-05T10:56:59.372Z</time></trkpt><trkpt lat="41.1548531" lon="1.1049257"><ele>127.00000000000001</ele><time>2026-04-05T10:57:02.372Z</time></trkpt><trkpt lat="41.1548076" lon="1.1049949"><ele>127.0</ele><time>2026-04-05T10:57:04.372Z</time></trkpt><trkpt lat="41.1547519" lon="1.1050562"><ele>127.0</ele><time>2026-04-05T10:57:06.373Z</time></trkpt><trkpt lat="41.1546895" lon="1.1051102"><ele>127.0</ele><time>2026-04-05T10:57:08.372Z</time></trkpt><trkpt lat="41.154614" lon="1.1052034"><ele>127.00000000000001</ele><time>2026-04-05T10:57:10.372Z</time></trkpt><trkpt lat="41.1545511" lon="1.1052464"><ele>127.0</ele><time>2026-04-05T10:57:12.373Z</time></trkpt><trkpt lat="41.1544905" lon="1.105314"><ele>127.00000000000001</ele><time>2026-04-05T10:57:14.373Z</time></trkpt><trkpt lat="41.1544193" lon="1.1053502"><ele>127.0</ele><time>2026-04-05T10:57:16.372Z</time></trkpt><trkpt lat="41.1543475" lon="1.1054051"><ele>127.0</ele><time>2026-04-05T10:57:19.372Z</time></trkpt><trkpt lat="41.1542686" lon="1.1054343"><ele>127.0</ele><time>2026-04-05T10:57:22.373Z</time></trkpt><trkpt lat="41.1541986" lon="1.1054871"><ele>127.00000000000001</ele><time>2026-04-05T10:57:24.372Z</time></trkpt><trkpt lat="41.1541298" lon="1.1055425"><ele>127.0</ele><time>2026-04-05T10:57:26.372Z</time></trkpt><trkpt lat="41.1540722" lon="1.105598"><ele>126.66666666666667</ele><time>2026-04-05T10:57:28.372Z</time></trkpt><trkpt lat="41.1540175" lon="1.1056469"><ele>126.33333333333334</ele><time>2026-04-05T10:57:30.372Z</time></trkpt><trkpt lat="41.1539414" lon="1.1057018"><ele>126.0</ele><time>2026-04-05T10:57:32.372Z</time></trkpt><trkpt lat="41.1538793" lon="1.1057385"><ele>125.66666666666666</ele><time>2026-04-05T10:57:33.372Z</time></trkpt><trkpt lat="41.1538241" lon="1.1058278"><ele>125.33333333333333</ele><time>2026-04-05T10:57:35.372Z</time></trkpt><trkpt lat="41.1537645" lon="1.1058986"><ele>125.0</ele><time>2026-04-05T10:57:37.372Z</time></trkpt><trkpt lat="41.1536878" lon="1.1059555"><ele>125.0</ele><time>2026-04-05T10:57:39.372Z</time></trkpt><trkpt lat="41.1535872" lon="1.1060004"><ele>125.0</ele><time>2026-04-05T10:57:41.372Z</time></trkpt><trkpt lat="41.1535027" lon="1.1060324"><ele>125.0</ele><time>2026-04-05T10:57:43.373Z</time></trkpt><trkpt lat="41.1534114" lon="1.1060816"><ele>125.0</ele><time>2026-04-05T10:57:45.372Z</time></trkpt><trkpt lat="41.1533413" lon="1.1061198"><ele>125.0</ele><time>2026-04-05T10:57:48.372Z</time></trkpt><trkpt lat="41.1532645" lon="1.1061698"><ele>125.0</ele><time>2026-04-05T10:57:51.373Z</time></trkpt><trkpt lat="41.1532091" lon="1.1061232"><ele>125.0</ele><time>2026-04-05T10:57:57.372Z</time></trkpt><trkpt lat="41.153195" lon="1.1060357"><ele>125.0</ele><time>2026-04-05T10:58:00.372Z</time></trkpt><trkpt lat="41.1531561" lon="1.1059444"><ele>125.0</ele><time>2026-04-05T10:58:03.372Z</time></trkpt><trkpt lat="41.1531171" lon="1.1058596"><ele>125.0</ele><time>2026-04-05T10:58:06.373Z</time></trkpt><trkpt lat="41.1530836" lon="1.1057668"><ele>125.0</ele><time>2026-04-05T10:58:13.372Z</time></trkpt><trkpt lat="41.1530385" lon="1.1056982"><ele>125.0</ele><time>2026-04-05T10:58:17.372Z</time></trkpt><trkpt lat="41.1529685" lon="1.1056322"><ele>124.33333333333333</ele><time>2026-04-05T10:58:20.372Z</time></trkpt><trkpt lat="41.1529086" lon="1.1055554"><ele>123.66666666666666</ele><time>2026-04-05T10:58:23.372Z</time></trkpt><trkpt lat="41.1528631" lon="1.1054964"><ele>123.0</ele><time>2026-04-05T10:58:28.372Z</time></trkpt><trkpt lat="41.1528324" lon="1.1054135"><ele>122.33333333333334</ele><time>2026-04-05T10:58:34.372Z</time></trkpt><trkpt lat="41.1527646" lon="1.1053452"><ele>121.66666666666667</ele><time>2026-04-05T10:58:38.372Z</time></trkpt><trkpt lat="41.1527081" lon="1.1052749"><ele>121.0</ele><time>2026-04-05T10:58:41.373Z</time></trkpt><trkpt lat="41.1526327" lon="1.1053898"><ele>121.0</ele><time>2026-04-05T10:58:46.372Z</time></trkpt><trkpt lat="41.1525619" lon="1.1054705"><ele>121.0</ele><time>2026-04-05T10:58:48.372Z</time></trkpt><trkpt lat="41.1524904" lon="1.1055557"><ele>121.0</ele><time>2026-04-05T10:58:50.372Z</time></trkpt><trkpt lat="41.1523882" lon="1.1056053"><ele>121.0</ele><time>2026-04-05T10:58:52.372Z</time></trkpt><trkpt lat="41.152284" lon="1.1056523"><ele>121.0</ele><time>2026-04-05T10:58:54.372Z</time></trkpt><trkpt lat="41.1522118" lon="1.1057401"><ele>120.8</ele><time>2026-04-05T10:58:56.373Z</time></trkpt><trkpt lat="41.1521194" lon="1.1058201"><ele>120.6</ele><time>2026-04-05T10:58:58.372Z</time></trkpt><trkpt lat="41.1520528" lon="1.1058863"><ele>120.4</ele><time>2026-04-05T10:59:00.372Z</time></trkpt><trkpt lat="41.1519542" lon="1.1059511"><ele>120.2</ele><time>2026-04-05T10:59:02.372Z</time></trkpt><trkpt lat="41.1518544" lon="1.1059678"><ele>120.0</ele><time>2026-04-05T10:59:04.372Z</time></trkpt><trkpt lat="41.151753" lon="1.1059659"><ele>120.0</ele><time>2026-04-05T10:59:06.372Z</time></trkpt><trkpt lat="41.1516882" lon="1.1059928"><ele>120.0</ele><time>2026-04-05T10:59:07.373Z</time></trkpt><trkpt lat="41.1515831" lon="1.1060462"><ele>120.0</ele><time>2026-04-05T10:59:09.372Z</time></trkpt><trkpt lat="41.1514914" lon="1.1061027"><ele>120.0</ele><time>2026-04-05T10:59:11.372Z</time></trkpt><trkpt lat="41.1513805" lon="1.1061473"><ele>120.0</ele><time>2026-04-05T10:59:13.373Z</time></trkpt><trkpt lat="41.1512856" lon="1.1061198"><ele>119.83333333333333</ele><time>2026-04-05T10:59:15.372Z</time></trkpt><trkpt lat="41.1512994" lon="1.1060024"><ele>119.66666666666666</ele><time>2026-04-05T10:59:16.372Z</time></trkpt><trkpt lat="41.1513188" lon="1.1058705"><ele>119.5</ele><time>2026-04-05T10:59:18.372Z</time></trkpt><trkpt lat="41.1513032" lon="1.1057846"><ele>119.33333333333333</ele><time>2026-04-05T10:59:20.373Z</time></trkpt><trkpt lat="41.1512357" lon="1.1058061"><ele>119.16666666666666</ele><time>2026-04-05T10:59:23.372Z</time></trkpt><trkpt lat="41.1511324" lon="1.1057925"><ele>119.0</ele><time>2026-04-05T10:59:27.372Z</time></trkpt><trkpt lat="41.1510666" lon="1.1058111"><ele>119.0</ele><time>2026-04-05T10:59:28.372Z</time></trkpt><trkpt lat="41.1509517" lon="1.1058288"><ele>119.0</ele><time>2026-04-05T10:59:29.373Z</time></trkpt><trkpt lat="41.1508049" lon="1.1058367"><ele>119.0</ele><time>2026-04-05T10:59:31.372Z</time></trkpt><trkpt lat="41.1507294" lon="1.1058388"><ele>119.0</ele><time>2026-04-05T10:59:32.372Z</time></trkpt><trkpt lat="41.1506657" lon="1.1058578"><ele>119.0</ele><time>2026-04-05T10:59:33.373Z</time></trkpt><trkpt lat="41.1505982" lon="1.1058667"><ele>119.0</ele><time>2026-04-05T10:59:34.372Z</time></trkpt><trkpt lat="41.150488" lon="1.1058675"><ele>119.0</ele><time>2026-04-05T10:59:36.372Z</time></trkpt><trkpt lat="41.1504261" lon="1.1059144"><ele>119.0</ele><time>2026-04-05T10:59:38.372Z</time></trkpt><trkpt lat="41.150354" lon="1.1058551"><ele>119.0</ele><time>2026-04-05T10:59:40.372Z</time></trkpt><trkpt lat="41.15028" lon="1.1057906"><ele>119.0</ele><time>2026-04-05T10:59:42.372Z</time></trkpt><trkpt lat="41.1502089" lon="1.1057056"><ele>119.0</ele><time>2026-04-05T10:59:44.372Z</time></trkpt><trkpt lat="41.1501741" lon="1.1055825"><ele>119.0</ele><time>2026-04-05T10:59:46.372Z</time></trkpt><trkpt lat="41.1501562" lon="1.105446"><ele>119.0</ele><time>2026-04-05T10:59:48.372Z</time></trkpt><trkpt lat="41.1501133" lon="1.1053353"><ele>119.0</ele><time>2026-04-05T10:59:50.372Z</time></trkpt><trkpt lat="41.1500512" lon="1.1052509"><ele>119.0</ele><time>2026-04-05T10:59:52.372Z</time></trkpt><trkpt lat="41.1499638" lon="1.1052147"><ele>117.6</ele><time>2026-04-05T10:59:54.372Z</time></trkpt><trkpt lat="41.149858" lon="1.1052017"><ele>116.2</ele><time>2026-04-05T10:59:56.372Z</time></trkpt><trkpt lat="41.1497607" lon="1.1052463"><ele>114.79999999999998</ele><time>2026-04-05T10:59:58.373Z</time></trkpt><trkpt lat="41.1497045" lon="1.1053527"><ele>113.39999999999999</ele><time>2026-04-05T11:00:00.372Z</time></trkpt><trkpt lat="41.1496752" lon="1.1054802"><ele>112.0</ele><time>2026-04-05T11:00:02.372Z</time></trkpt><trkpt lat="41.1496459" lon="1.1056144"><ele>112.0</ele><time>2026-04-05T11:00:04.373Z</time></trkpt><trkpt lat="41.1496203" lon="1.1057683"><ele>111.99999999999999</ele><time>2026-04-05T11:00:06.372Z</time></trkpt><trkpt lat="41.1495788" lon="1.1058963"><ele>111.99999999999999</ele><time>2026-04-05T11:00:08.372Z</time></trkpt><trkpt lat="41.1495069" lon="1.1060148"><ele>112.0</ele><time>2026-04-05T11:00:10.373Z</time></trkpt><trkpt lat="41.1494392" lon="1.1061214"><ele>112.0</ele><time>2026-04-05T11:00:12.373Z</time></trkpt><trkpt lat="41.1493659" lon="1.1062252"><ele>112.0</ele><time>2026-04-05T11:00:14.372Z</time></trkpt><trkpt lat="41.1492844" lon="1.1063302"><ele>111.99999999999999</ele><time>2026-04-05T11:00:16.372Z</time></trkpt><trkpt lat="41.1491996" lon="1.1064175"><ele>111.99999999999999</ele><time>2026-04-05T11:00:18.373Z</time></trkpt><trkpt lat="41.1491218" lon="1.1065147"><ele>112.0</ele><time>2026-04-05T11:00:20.372Z</time></trkpt><trkpt lat="41.1490668" lon="1.1066124"><ele>112.0</ele><time>2026-04-05T11:00:22.372Z</time></trkpt><trkpt lat="41.1490076" lon="1.1067146"><ele>111.6</ele><time>2026-04-05T11:00:24.372Z</time></trkpt><trkpt lat="41.1489503" lon="1.1068217"><ele>111.19999999999999</ele><time>2026-04-05T11:00:26.372Z</time></trkpt><trkpt lat="41.1488666" lon="1.1069211"><ele>110.8</ele><time>2026-04-05T11:00:28.372Z</time></trkpt><trkpt lat="41.1488018" lon="1.107021"><ele>110.4</ele><time>2026-04-05T11:00:30.373Z</time></trkpt><trkpt lat="41.1487305" lon="1.1071307"><ele>110.0</ele><time>2026-04-05T11:00:32.372Z</time></trkpt><trkpt lat="41.1486698" lon="1.1072292"><ele>110.0</ele><time>2026-04-05T11:00:34.372Z</time></trkpt><trkpt lat="41.1486101" lon="1.1073338"><ele>110.0</ele><time>2026-04-05T11:00:36.372Z</time></trkpt><trkpt lat="41.1485319" lon="1.1074379"><ele>110.0</ele><time>2026-04-05T11:00:38.372Z</time></trkpt><trkpt lat="41.1484533" lon="1.1075385"><ele>110.0</ele><time>2026-04-05T11:00:40.372Z</time></trkpt><trkpt lat="41.1483837" lon="1.1076408"><ele>110.0</ele><time>2026-04-05T11:00:42.372Z</time></trkpt><trkpt lat="41.1483313" lon="1.1077557"><ele>110.0</ele><time>2026-04-05T11:00:44.373Z</time></trkpt><trkpt lat="41.1482532" lon="1.10786"><ele>110.0</ele><time>2026-04-05T11:00:46.372Z</time></trkpt><trkpt lat="41.1481811" lon="1.1079594"><ele>110.0</ele><time>2026-04-05T11:00:48.372Z</time></trkpt><trkpt lat="41.1480762" lon="1.1080369"><ele>110.0</ele><time>2026-04-05T11:00:50.372Z</time></trkpt><trkpt lat="41.1479984" lon="1.1081115"><ele>110.0</ele><time>2026-04-05T11:00:52.372Z</time></trkpt><trkpt lat="41.1479849" lon="1.1082124"><ele>111.4</ele><time>2026-04-05T11:00:54.372Z</time></trkpt><trkpt lat="41.1479405" lon="1.1083458"><ele>112.8</ele><time>2026-04-05T11:00:56.373Z</time></trkpt><trkpt lat="41.1478588" lon="1.1084337"><ele>114.19999999999999</ele><time>2026-04-05T11:00:58.372Z</time></trkpt><trkpt lat="41.1477861" lon="1.1085152"><ele>115.6</ele><time>2026-04-05T11:01:00.373Z</time></trkpt><trkpt lat="41.1477155" lon="1.1086181"><ele>117.0</ele><time>2026-04-05T11:01:02.373Z</time></trkpt><trkpt lat="41.1476528" lon="1.1087215"><ele>117.0</ele><time>2026-04-05T11:01:04.373Z</time></trkpt><trkpt lat="41.1475988" lon="1.1088148"><ele>117.00000000000001</ele><time>2026-04-05T11:01:06.372Z</time></trkpt><trkpt lat="41.1475467" lon="1.1088972"><ele>117.0</ele><time>2026-04-05T11:01:08.372Z</time></trkpt><trkpt lat="41.147506" lon="1.1089623"><ele>117.0</ele><time>2026-04-05T11:01:11.372Z</time></trkpt><trkpt lat="41.1474628" lon="1.1090341"><ele>117.00000000000001</ele><time>2026-04-05T11:01:13.372Z</time></trkpt><trkpt lat="41.1474281" lon="1.1091074"><ele>117.0</ele><time>2026-04-05T11:01:15.372Z</time></trkpt><trkpt lat="41.1473891" lon="1.1092026"><ele>117.0</ele><time>2026-04-05T11:01:17.373Z</time></trkpt><trkpt lat="41.1473418" lon="1.1093172"><ele>115.19999999999999</ele><time>2026-04-05T11:01:19.373Z</time></trkpt><trkpt lat="41.1472584" lon="1.1094141"><ele>113.39999999999999</ele><time>2026-04-05T11:01:21.373Z</time></trkpt><trkpt lat="41.1471721" lon="1.1095069"><ele>111.60000000000001</ele><time>2026-04-05T11:01:23.372Z</time></trkpt><trkpt lat="41.1470696" lon="1.1095577"><ele>109.80000000000001</ele><time>2026-04-05T11:01:25.373Z</time></trkpt><trkpt lat="41.1470023" lon="1.1095698"><ele>108.0</ele><time>2026-04-05T11:01:26.373Z</time></trkpt><trkpt lat="41.1469025" lon="1.1095902"><ele>108.0</ele><time>2026-04-05T11:01:28.372Z</time></trkpt><trkpt lat="41.1467946" lon="1.109583"><ele>108.0</ele><time>2026-04-05T11:01:30.372Z</time></trkpt><trkpt lat="41.1466785" lon="1.1095605"><ele>108.0</ele><time>2026-04-05T11:01:32.372Z</time></trkpt><trkpt lat="41.1465665" lon="1.1095437"><ele>108.0</ele><time>2026-04-05T11:01:34.372Z</time></trkpt><trkpt lat="41.1464559" lon="1.1095634"><ele>107.0</ele><time>2026-04-05T11:01:36.372Z</time></trkpt><trkpt lat="41.146356" lon="1.1095908"><ele>106.00000000000001</ele><time>2026-04-05T11:01:38.372Z</time></trkpt><trkpt lat="41.1462583" lon="1.1096245"><ele>105.0</ele><time>2026-04-05T11:01:40.372Z</time></trkpt><trkpt lat="41.1461637" lon="1.1096732"><ele>104.0</ele><time>2026-04-05T11:01:42.372Z</time></trkpt><trkpt lat="41.1460793" lon="1.1097244"><ele>103.0</ele><time>2026-04-05T11:01:44.373Z</time></trkpt><trkpt lat="41.1459929" lon="1.1098094"><ele>103.00000000000001</ele><time>2026-04-05T11:01:46.372Z</time></trkpt><trkpt lat="41.1459128" lon="1.1098687"><ele>103.0</ele><time>2026-04-05T11:01:48.372Z</time></trkpt><trkpt lat="41.1458328" lon="1.1098702"><ele>103.0</ele><time>2026-04-05T11:01:51.373Z</time></trkpt><trkpt lat="41.145774" lon="1.1098263"><ele>103.0</ele><time>2026-04-05T11:01:53.372Z</time></trkpt><trkpt lat="41.1457243" lon="1.1096825"><ele>103.00000000000001</ele><time>2026-04-05T11:01:54.372Z</time></trkpt><trkpt lat="41.1456527" lon="1.1096895"><ele>103.0</ele><time>2026-04-05T11:01:56.372Z</time></trkpt><trkpt lat="41.1455904" lon="1.1097311"><ele>102.0</ele><time>2026-04-05T11:01:58.372Z</time></trkpt><trkpt lat="41.1455405" lon="1.1098279"><ele>101.0</ele><time>2026-04-05T11:02:00.372Z</time></trkpt><trkpt lat="41.145515" lon="1.1099595"><ele>100.0</ele><time>2026-04-05T11:02:02.372Z</time></trkpt><trkpt lat="41.1455556" lon="1.1100894"><ele>99.0</ele><time>2026-04-05T11:02:04.372Z</time></trkpt><trkpt lat="41.1455123" lon="1.1102233"><ele>98.0</ele><time>2026-04-05T11:02:06.372Z</time></trkpt><trkpt lat="41.1454478" lon="1.1103263"><ele>98.0</ele><time>2026-04-05T11:02:08.372Z</time></trkpt><trkpt lat="41.1453778" lon="1.1104224"><ele>98.0</ele><time>2026-04-05T11:02:10.372Z</time></trkpt><trkpt lat="41.1453089" lon="1.1105257"><ele>98.0</ele><time>2026-04-05T11:02:12.373Z</time></trkpt><trkpt lat="41.1452338" lon="1.1106202"><ele>98.0</ele><time>2026-04-05T11:02:14.372Z</time></trkpt><trkpt lat="41.1451507" lon="1.110718"><ele>98.0</ele><time>2026-04-05T11:02:16.373Z</time></trkpt><trkpt lat="41.1450458" lon="1.1108104"><ele>97.75</ele><time>2026-04-05T11:02:18.372Z</time></trkpt><trkpt lat="41.1449661" lon="1.1108863"><ele>97.5</ele><time>2026-04-05T11:02:20.372Z</time></trkpt><trkpt lat="41.1448625" lon="1.1109619"><ele>97.25</ele><time>2026-04-05T11:02:22.372Z</time></trkpt><trkpt lat="41.1447507" lon="1.1110455"><ele>97.0</ele><time>2026-04-05T11:02:24.372Z</time></trkpt><trkpt lat="41.1446399" lon="1.1111292"><ele>97.0</ele><time>2026-04-05T11:02:26.372Z</time></trkpt><trkpt lat="41.1445454" lon="1.1112318"><ele>97.0</ele><time>2026-04-05T11:02:28.372Z</time></trkpt><trkpt lat="41.1445124" lon="1.1113346"><ele>97.0</ele><time>2026-04-05T11:02:30.373Z</time></trkpt><trkpt lat="41.1445357" lon="1.1114296"><ele>97.0</ele><time>2026-04-05T11:02:31.372Z</time></trkpt><trkpt lat="41.1445845" lon="1.1115622"><ele>97.0</ele><time>2026-04-05T11:02:33.372Z</time></trkpt><trkpt lat="41.1446394" lon="1.1116875"><ele>97.16666666666667</ele><time>2026-04-05T11:02:35.373Z</time></trkpt><trkpt lat="41.1446907" lon="1.1118042"><ele>97.33333333333334</ele><time>2026-04-05T11:02:37.372Z</time></trkpt><trkpt lat="41.1447402" lon="1.1119129"><ele>97.5</ele><time>2026-04-05T11:02:39.372Z</time></trkpt><trkpt lat="41.1447803" lon="1.1120221"><ele>97.66666666666666</ele><time>2026-04-05T11:02:41.372Z</time></trkpt><trkpt lat="41.1448173" lon="1.1121055"><ele>97.83333333333333</ele><time>2026-04-05T11:02:43.372Z</time></trkpt><trkpt lat="41.1448309" lon="1.1122082"><ele>98.0</ele><time>2026-04-05T11:02:45.372Z</time></trkpt><trkpt lat="41.1447849" lon="1.1122892"><ele>97.99999999999999</ele><time>2026-04-05T11:02:47.372Z</time></trkpt><trkpt lat="41.1447207" lon="1.1123427"><ele>98.0</ele><time>2026-04-05T11:02:49.372Z</time></trkpt><trkpt lat="41.1446372" lon="1.1123983"><ele>98.0</ele><time>2026-04-05T11:02:51.372Z</time></trkpt><trkpt lat="41.144565" lon="1.1124581"><ele>98.0</ele><time>2026-04-05T11:02:53.372Z</time></trkpt><trkpt lat="41.1445" lon="1.1125069"><ele>97.99999999999999</ele><time>2026-04-05T11:02:55.372Z</time></trkpt><trkpt lat="41.1444183" lon="1.1125043"><ele>98.0</ele><time>2026-04-05T11:02:58.372Z</time></trkpt><trkpt lat="41.1443575" lon="1.1125548"><ele>98.33333333333333</ele><time>2026-04-05T11:03:05.372Z</time></trkpt><trkpt lat="41.1443108" lon="1.1126124"><ele>98.66666666666666</ele><time>2026-04-05T11:03:07.373Z</time></trkpt><trkpt lat="41.1442528" lon="1.1126739"><ele>99.0</ele><time>2026-04-05T11:03:09.372Z</time></trkpt><trkpt lat="41.1441961" lon="1.1127218"><ele>99.33333333333334</ele><time>2026-04-05T11:03:11.372Z</time></trkpt><trkpt lat="41.1441378" lon="1.1127964"><ele>99.66666666666667</ele><time>2026-04-05T11:03:14.372Z</time></trkpt><trkpt lat="41.144126" lon="1.1129021"><ele>100.0</ele><time>2026-04-05T11:03:18.372Z</time></trkpt><trkpt lat="41.1441713" lon="1.1130087"><ele>100.00000000000001</ele><time>2026-04-05T11:03:21.372Z</time></trkpt><trkpt lat="41.1441933" lon="1.1131214"><ele>100.0</ele><time>2026-04-05T11:03:24.373Z</time></trkpt><trkpt lat="41.1442018" lon="1.1132191"><ele>100.0</ele><time>2026-04-05T11:03:27.372Z</time></trkpt><trkpt lat="41.1442282" lon="1.1132976"><ele>100.0</ele><time>2026-04-05T11:03:30.373Z</time></trkpt><trkpt lat="41.1442659" lon="1.1133806"><ele>100.00000000000001</ele><time>2026-04-05T11:03:33.372Z</time></trkpt><trkpt lat="41.1442852" lon="1.1134894"><ele>100.0</ele><time>2026-04-05T11:03:36.372Z</time></trkpt><trkpt lat="41.1442955" lon="1.1135758"><ele>100.28571428571429</ele><time>2026-04-05T11:03:40.372Z</time></trkpt><trkpt lat="41.1443597" lon="1.1135811"><ele>100.57142857142857</ele><time>2026-04-05T11:03:44.372Z</time></trkpt><trkpt lat="41.1444342" lon="1.1135484"><ele>100.85714285714286</ele><time>2026-04-05T11:03:48.372Z</time></trkpt><trkpt lat="41.1445145" lon="1.1135076"><ele>101.14285714285714</ele><time>2026-04-05T11:03:52.372Z</time></trkpt><trkpt lat="41.1445735" lon="1.1134737"><ele>101.42857142857143</ele><time>2026-04-05T11:03:55.372Z</time></trkpt><trkpt lat="41.1446332" lon="1.1134125"><ele>101.71428571428572</ele><time>2026-04-05T11:03:59.372Z</time></trkpt><trkpt lat="41.1446865" lon="1.113365"><ele>102.0</ele><time>2026-04-05T11:04:05.372Z</time></trkpt><trkpt lat="41.1447024" lon="1.1134604"><ele>102.0</ele><time>2026-04-05T11:04:14.372Z</time></trkpt><trkpt lat="41.1447403" lon="1.1135433"><ele>102.0</ele><time>2026-04-05T11:04:17.372Z</time></trkpt><trkpt lat="41.144819" lon="1.1135795"><ele>102.0</ele><time>2026-04-05T11:04:19.373Z</time></trkpt><trkpt lat="41.1449071" lon="1.1136089"><ele>102.0</ele><time>2026-04-05T11:04:22.372Z</time></trkpt><trkpt lat="41.144971" lon="1.1136834"><ele>102.0</ele><time>2026-04-05T11:04:25.372Z</time></trkpt><trkpt lat="41.1450127" lon="1.1137775"><ele>102.0</ele><time>2026-04-05T11:04:28.372Z</time></trkpt><trkpt lat="41.1450625" lon="1.1138757"><ele>101.57142857142857</ele><time>2026-04-05T11:04:31.372Z</time></trkpt><trkpt lat="41.1451012" lon="1.1139667"><ele>101.14285714285714</ele><time>2026-04-05T11:04:34.372Z</time></trkpt><trkpt lat="41.1451099" lon="1.1140606"><ele>100.71428571428572</ele><time>2026-04-05T11:04:39.372Z</time></trkpt><trkpt lat="41.1451222" lon="1.1141599"><ele>100.28571428571428</ele><time>2026-04-05T11:04:44.372Z</time></trkpt><trkpt lat="41.1451647" lon="1.1142467"><ele>99.85714285714285</ele><time>2026-04-05T11:04:48.372Z</time></trkpt><trkpt lat="41.145201" lon="1.1143306"><ele>99.42857142857143</ele><time>2026-04-05T11:04:52.372Z</time></trkpt><trkpt lat="41.1452054" lon="1.1144171"><ele>99.0</ele><time>2026-04-05T11:04:58.372Z</time></trkpt><trkpt lat="41.1452685" lon="1.1143814"><ele>95.0</ele><time>2026-04-05T11:05:04.372Z</time></trkpt><trkpt lat="41.145306" lon="1.1143115"><ele>95.0</ele><time>2026-04-05T11:05:08.373Z</time></trkpt><trkpt lat="41.1452536" lon="1.1142509"><ele>95.0</ele><time>2026-04-05T11:05:12.373Z</time></trkpt></trkseg></trk></gpx>